Time,TemperatureF,DewpointF,PressureIn,WindDirection,WindDirectionDegrees,WindSpeedMPH,WindSpeedGustMPH,Humidity,HourlyPrecipIn,Conditions,Clouds,dailyrainin,SoftwareType,DateUTC
2013-03-19 00:01:00,53.6,43.3,30.12,South,169,0.0,0.0,68,0.00,SCT,,0.00,WeatherDisplay:10.37,2013-03-19 07:01:00,
2013-03-19 00:02:00,53.6,43.3,30.12,South,169,0.0,0.0,68,0.00,SCT,,0.00,WeatherDisplay:10.37,2013-03-19 07:02:00,
2013-03-19 00:03:00,53.6,43.3,30.11,South,169,0.0,0.0,68,0.00,SCT,,0.00,WeatherDisplay:10.37,2013-03-19 07:03:00,
2013-03-19 00:05:00,53.6,43.3,30.12,South,169,0.0,0.0,68,0.00,SCT,,0.00,WeatherDisplay:10.37,2013-03-19 07:05:00,
2013-03-19 00:07:00,53.5,43.2,30.12,South,169,0.0,0.2,68,0.00,SCT,,0.00,WeatherDisplay:10.37,2013-03-19 07:07:00,
2013-03-19 00:08:00,53.5,43.2,30.12,ESE,114,2.3,2.3,68,0.00,SCT,,0.00,WeatherDisplay:10.37,2013-03-19 07:08:00,
2013-03-19 00:10:00,53.4,42.7,30.12,ESE,114,2.3,2.3,67,0.00,SCT,,0.00,WeatherDisplay:10.37,2013-03-19 07:10:00,
2013-03-19 00:13:00,53.4,42.7,30.12,ESE,114,0.0,0.0,67,0.00,SCT,,0.00,WeatherDisplay:10.37,2013-03-19 07:13:00,
2013-03-19 00:15:00,53.2,42.5,30.12,ESE,114,0.0,0.0,67,0.00,SCT,,0.00,WeatherDisplay:10.37,2013-03-19 07:15:00,
2013-03-19 00:17:00,53.2,42.5,30.12,ESE,114,0.0,0.0,67,0.00,SCT,,0.00,WeatherDisplay:10.37,2013-03-19 07:17:00,
2013-03-19 00:18:00,53.2,42.9,30.12,ESE,114,0.0,0.0,68,0.00,SCT,,0.00,WeatherDisplay:10.37,2013-03-19 07:18:00,
2013-03-19 00:19:00,53.1,42.4,30.12,ESE,114,0.0,0.0,67,0.00,SCT,,0.00,WeatherDisplay:10.37,2013-03-19 07:19:00,
2013-03-19 00:20:00,53.1,42.4,30.12,ESE,114,0.0,0.0,67,0.00,SCT,,0.00,WeatherDisplay:10.37,2013-03-19 07:20:00,
2013-03-19 00:23:00,53.0,42.7,30.12,ESE,114,0.0,0.0,68,0.00,SCT,,0.00,WeatherDisplay:10.37,2013-03-19 07:23:00,
2013-03-19 00:25:00,53.0,42.3,30.12,ESE,114,0.0,0.0,67,0.00,SCT,,0.00,WeatherDisplay:10.37,2013-03-19 07:25:00,
2013-03-19 00:28:00,53.0,42.3,30.12,ESE,114,0.0,0.0,67,0.00,SCT,,0.00,WeatherDisplay:10.37,2013-03-19 07:28:00,
2013-03-19 00:30:00,52.9,42.2,30.12,ESE,114,0.0,0.0,67,0.00,SCT,,0.00,WeatherDisplay:10.37,2013-03-19 07:30:00,
2013-03-19 00:34:00,52.7,42.0,30.12,ESE,114,0.0,0.0,67,0.00,SCT,,0.00,WeatherDisplay:10.37,2013-03-19 07:34:00,
2013-03-19 00:35:00,52.7,42.4,30.12,ESE,114,0.0,0.0,68,0.00,SCT,,0.00,WeatherDisplay:10.37,2013-03-19 07:35:00,
2013-03-19 00:36:00,52.7,42.0,30.12,ESE,114,0.0,0.0,67,0.00,SCT,,0.00,WeatherDisplay:10.37,2013-03-19 07:36:00,
2013-03-19 00:39:00,52.7,42.0,30.12,ESE,114,0.0,0.0,67,0.00,SCT,,0.00,WeatherDisplay:10.37,2013-03-19 07:39:00,
2013-03-19 00:40:00,52.7,42.0,30.12,ESE,114,0.0,0.0,67,0.00,SCT,,0.00,WeatherDisplay:10.37,2013-03-19 07:40:00,
2013-03-19 00:42:00,52.7,42.0,30.12,ESE,114,0.0,0.0,67,0.00,SCT,,0.00,WeatherDisplay:10.37,2013-03-19 07:42:00,
2013-03-19 00:44:00,52.6,41.9,30.12,ESE,114,0.0,0.0,67,0.00,SCT,,0.00,WeatherDisplay:10.37,2013-03-19 07:44:00,
2013-03-19 00:45:00,52.6,42.3,30.12,ESE,114,0.0,0.0,68,0.00,SCT,,0.00,WeatherDisplay:10.37,2013-03-19 07:45:00,
2013-03-19 00:47:00,52.6,42.3,30.12,ESE,114,0.0,0.0,68,0.00,SCT,,0.00,WeatherDisplay:10.37,2013-03-19 07:47:00,
2013-03-19 00:49:00,52.5,42.6,30.11,ESE,114,0.0,0.0,69,0.00,SCT,,0.00,WeatherDisplay:10.37,2013-03-19 07:49:00,
2013-03-19 00:50:00,52.4,42.1,30.12,ESE,114,0.0,0.0,68,0.00,SCT,,0.00,WeatherDisplay:10.37,2013-03-19 07:50:00,
2013-03-19 00:52:00,52.4,42.5,30.11,ESE,114,0.0,0.0,69,0.00,SCT,,0.00,WeatherDisplay:10.37,2013-03-19 07:52:00,
2013-03-19 00:53:00,52.4,42.5,30.11,ESE,114,0.0,0.0,69,0.00,SCT,,0.00,WeatherDisplay:10.37,2013-03-19 07:53:00,
2013-03-19 00:54:00,52.3,42.4,30.11,ESE,114,0.0,0.0,69,0.00,SCT,,0.00,WeatherDisplay:10.37,2013-03-19 07:54:00,
2013-03-19 00:55:00,52.3,42.4,30.12,ESE,114,0.0,0.0,69,0.00,SCT,,0.00,WeatherDisplay:10.37,2013-03-19 07:55:00,
2013-03-19 00:59:00,52.3,42.4,30.11,ESE,114,0.0,0.0,69,0.00,SCT,,0.00,WeatherDisplay:10.37,2013-03-19 07:59:00,
2013-03-19 01:00:00,52.2,42.4,30.11,ESE,114,0.0,0.0,69,0.00,SCT,,0.00,WeatherDisplay:10.37,2013-03-19 08:00:00,
2013-03-19 01:05:00,52.2,42.3,30.11,ESE,114,0.0,1.0,69,0.00,SCT,,0.00,WeatherDisplay:10.37,2013-03-19 08:05:00,
2013-03-19 01:10:00,52.2,42.3,30.12,ESE,114,0.0,0.0,69,0.00,SCT,,0.00,WeatherDisplay:10.37,2013-03-19 08:10:00,
2013-03-19 01:11:00,52.2,42.3,30.11,ESE,114,0.0,0.0,69,0.00,SCT,,0.00,WeatherDisplay:10.37,2013-03-19 08:11:00,
2013-03-19 01:15:00,52.1,42.2,30.11,ESE,114,1.2,1.2,69,0.00,SCT,,0.00,WeatherDisplay:10.37,2013-03-19 08:15:00,
2013-03-19 01:17:00,52.1,42.2,30.12,ESE,114,0.0,0.0,69,0.00,SCT,,0.00,WeatherDisplay:10.37,2013-03-19 08:17:00,
2013-03-19 01:20:00,52.0,42.1,30.11,SSW,196,3.5,3.5,69,0.00,SCT,,0.00,WeatherDisplay:10.37,2013-03-19 08:20:00,
2013-03-19 01:22:00,52.0,42.1,30.11,SSW,196,0.0,0.0,69,0.00,SCT,,0.00,WeatherDisplay:10.37,2013-03-19 08:22:00,
2013-03-19 01:23:00,52.0,42.5,30.12,SSW,196,0.0,0.0,70,0.00,SCT,,0.00,WeatherDisplay:10.37,2013-03-19 08:23:00,
2013-03-19 01:25:00,51.9,42.4,30.12,SSW,196,0.0,0.0,70,0.00,SCT,,0.00,WeatherDisplay:10.37,2013-03-19 08:25:00,
2013-03-19 01:26:00,51.9,42.4,30.12,SSW,196,0.0,0.0,70,0.00,SCT,,0.00,WeatherDisplay:10.37,2013-03-19 08:26:00,
2013-03-19 01:28:00,51.9,42.4,30.12,SSW,196,0.0,0.0,70,0.00,SCT,,0.00,WeatherDisplay:10.37,2013-03-19 08:28:00,
2013-03-19 01:31:00,51.8,42.3,30.12,SSW,196,0.0,0.0,70,0.00,SCT,,0.00,WeatherDisplay:10.37,2013-03-19 08:31:00,
2013-03-19 01:32:00,51.8,42.7,30.12,SSW,196,1.2,1.2,71,0.00,SCT,,0.00,WeatherDisplay:10.37,2013-03-19 08:32:00,
2013-03-19 01:33:00,51.8,42.3,30.12,SSW,196,1.2,0.0,70,0.00,SCT,,0.00,WeatherDisplay:10.37,2013-03-19 08:33:00,
2013-03-19 01:35:00,51.7,42.2,30.11,SSW,196,1.2,1.2,70,0.00,SCT,,0.00,WeatherDisplay:10.37,2013-03-19 08:35:00,
2013-03-19 01:36:00,51.7,42.6,30.12,SSW,196,1.2,1.2,71,0.00,SCT,,0.00,WeatherDisplay:10.37,2013-03-19 08:36:00,
2013-03-19 01:37:00,51.6,42.5,30.12,SE,144,1.2,1.2,71,0.00,SCT,,0.00,WeatherDisplay:10.37,2013-03-19 08:37:00,
2013-03-19 01:38:00,51.6,42.5,30.12,SE,141,1.2,1.2,71,0.00,SCT,,0.00,WeatherDisplay:10.37,2013-03-19 08:38:00,
2013-03-19 01:40:00,51.6,42.5,30.12,SE,141,2.3,2.3,71,0.00,SCT,,0.00,WeatherDisplay:10.37,2013-03-19 08:40:00,
2013-03-19 01:41:00,51.6,42.5,30.12,SE,141,1.2,0.0,71,0.00,SCT,,0.00,WeatherDisplay:10.37,2013-03-19 08:41:00,
2013-03-19 01:42:00,51.6,42.5,30.12,SE,141,0.0,0.1,71,0.00,SCT,,0.00,WeatherDisplay:10.37,2013-03-19 08:42:00,
2013-03-19 01:45:00,51.7,42.6,30.12,SE,129,1.2,1.2,71,0.00,SCT,,0.00,WeatherDisplay:10.37,2013-03-19 08:45:00,
2013-03-19 01:47:00,51.7,42.6,30.12,SE,129,3.5,0.0,71,0.00,SCT,,0.00,WeatherDisplay:10.37,2013-03-19 08:47:00,
2013-03-19 01:48:00,51.7,42.2,30.12,SE,129,0.0,0.0,70,0.00,SCT,,0.00,WeatherDisplay:10.37,2013-03-19 08:48:00,
2013-03-19 01:49:00,51.7,42.6,30.12,SE,129,0.0,0.0,71,0.00,SCT,,0.00,WeatherDisplay:10.37,2013-03-19 08:49:00,
2013-03-19 01:50:00,51.7,42.2,30.11,SE,129,0.0,0.0,70,0.00,SCT,,0.00,WeatherDisplay:10.37,2013-03-19 08:50:00,
2013-03-19 01:52:00,51.7,42.2,30.11,SE,129,0.0,0.0,70,0.00,SCT,,0.00,WeatherDisplay:10.37,2013-03-19 08:52:00,
2013-03-19 01:55:00,51.7,42.2,30.11,SE,129,0.0,0.0,70,0.00,SCT,,0.00,WeatherDisplay:10.37,2013-03-19 08:55:00,
2013-03-19 01:57:00,51.7,42.2,30.11,SE,129,1.2,0.0,70,0.00,SCT,,0.00,WeatherDisplay:10.37,2013-03-19 08:57:00,
2013-03-19 01:58:00,51.7,42.2,30.12,SE,129,1.2,0.0,70,0.00,SCT,,0.00,WeatherDisplay:10.37,2013-03-19 08:58:00,
2013-03-19 02:00:00,51.6,42.1,30.12,SE,129,0.0,0.0,70,0.00,SCT,,0.00,WeatherDisplay:10.37,2013-03-19 09:00:00,
2013-03-19 02:01:00,51.6,42.1,30.12,SE,129,0.0,0.0,70,0.00,SCT,,0.00,WeatherDisplay:10.37,2013-03-19 09:01:00,
2013-03-19 02:02:00,51.6,42.1,30.12,SE,129,0.0,0.0,70,0.00,SCT,,0.00,WeatherDisplay:10.37,2013-03-19 09:02:00,
2013-03-19 02:04:00,51.6,42.1,30.12,SE,129,0.0,0.0,70,0.00,SCT,,0.00,WeatherDisplay:10.37,2013-03-19 09:04:00,
2013-03-19 02:05:00,51.6,42.1,30.12,SE,129,0.0,0.0,70,0.00,SCT,,0.00,WeatherDisplay:10.37,2013-03-19 09:05:00,
2013-03-19 02:07:00,51.5,42.0,30.12,SE,129,0.0,0.0,70,0.00,SCT,,0.00,WeatherDisplay:10.37,2013-03-19 09:07:00,
2013-03-19 02:09:00,51.6,42.1,30.11,SE,129,0.0,0.0,70,0.00,SCT,,0.00,WeatherDisplay:10.37,2013-03-19 09:09:00,
2013-03-19 02:10:00,51.6,42.1,30.12,SE,129,0.0,0.0,70,0.00,SCT,,0.00,WeatherDisplay:10.37,2013-03-19 09:10:00,
2013-03-19 02:12:00,51.6,42.1,30.12,SE,129,0.0,0.0,70,0.00,SCT,,0.00,WeatherDisplay:10.37,2013-03-19 09:12:00,
2013-03-19 02:13:00,51.6,41.8,30.12,SE,129,0.0,0.0,69,0.00,SCT,,0.00,WeatherDisplay:10.37,2013-03-19 09:13:00,
2013-03-19 02:15:00,51.6,41.8,30.12,SE,129,0.0,0.0,69,0.00,SCT,,0.00,WeatherDisplay:10.37,2013-03-19 09:15:00,
2013-03-19 02:18:00,51.6,42.1,30.12,SE,129,0.0,0.0,70,0.00,SCT,,0.00,WeatherDisplay:10.37,2013-03-19 09:18:00,
2013-03-19 02:19:00,51.6,42.1,30.12,SE,129,0.0,0.0,70,0.00,SCT,,0.00,WeatherDisplay:10.37,2013-03-19 09:19:00,
2013-03-19 02:20:00,51.6,42.1,30.12,SE,129,0.0,0.0,70,0.00,SCT,,0.00,WeatherDisplay:10.37,2013-03-19 09:20:00,
2013-03-19 02:23:00,51.6,42.1,30.11,SE,129,0.0,0.0,70,0.00,SCT,,0.00,WeatherDisplay:10.37,2013-03-19 09:23:00,
2013-03-19 02:24:00,51.6,42.1,30.11,SE,129,0.0,0.0,70,0.00,SCT,,0.00,WeatherDisplay:10.37,2013-03-19 09:24:00,
2013-03-19 02:25:00,51.6,42.1,30.11,SE,129,0.0,0.0,70,0.00,SCT,,0.00,WeatherDisplay:10.37,2013-03-19 09:25:00,
2013-03-19 02:29:00,51.6,42.1,30.11,SE,129,0.0,0.0,70,0.00,SCT,,0.00,WeatherDisplay:10.37,2013-03-19 09:29:00,
2013-03-19 02:30:00,51.6,42.1,30.11,SE,129,0.0,0.0,70,0.00,SCT,,0.00,WeatherDisplay:10.37,2013-03-19 09:30:00,
2013-03-19 02:31:00,51.6,42.1,30.11,SE,129,0.0,0.0,70,0.00,SCT,,0.00,WeatherDisplay:10.37,2013-03-19 09:31:00,
2013-03-19 02:34:00,51.6,42.1,30.11,SE,129,0.0,0.0,70,0.00,SCT,,0.00,WeatherDisplay:10.37,2013-03-19 09:34:00,
2013-03-19 02:35:00,51.6,42.1,30.11,SE,129,0.0,0.0,70,0.00,SCT,,0.00,WeatherDisplay:10.37,2013-03-19 09:35:00,
2013-03-19 02:36:00,51.6,42.1,30.11,SE,129,0.0,0.0,70,0.00,SCT,,0.00,WeatherDisplay:10.37,2013-03-19 09:36:00,
2013-03-19 02:40:00,51.5,42.0,30.11,SE,129,0.0,0.0,70,0.00,SCT,,0.00,WeatherDisplay:10.37,2013-03-19 09:40:00,
2013-03-19 02:41:00,51.5,42.0,30.11,SE,129,0.0,0.0,70,0.00,SCT,,0.00,WeatherDisplay:10.37,2013-03-19 09:41:00,
2013-03-19 02:44:00,51.6,42.1,30.11,SE,129,0.0,0.0,70,0.00,SCT,,0.00,WeatherDisplay:10.37,2013-03-19 09:44:00,
2013-03-19 02:45:00,51.6,42.1,30.11,SE,129,0.0,0.0,70,0.00,SCT,,0.00,WeatherDisplay:10.37,2013-03-19 09:45:00,
2013-03-19 02:46:00,51.5,42.0,30.11,SE,129,0.0,0.0,70,0.00,SCT,,0.00,WeatherDisplay:10.37,2013-03-19 09:46:00,
2013-03-19 02:47:00,51.6,42.1,30.11,SE,129,0.0,0.0,70,0.00,SCT,,0.00,WeatherDisplay:10.37,2013-03-19 09:47:00,
2013-03-19 02:50:00,51.6,42.1,30.11,SE,129,0.0,0.0,70,0.00,SCT,,0.00,WeatherDisplay:10.37,2013-03-19 09:50:00,
2013-03-19 02:52:00,51.6,42.1,30.11,SE,129,0.0,0.0,70,0.00,SCT,,0.00,WeatherDisplay:10.37,2013-03-19 09:52:00,
2013-03-19 02:54:00,51.5,42.0,30.11,SE,129,0.0,0.0,70,0.00,SCT,,0.00,WeatherDisplay:10.37,2013-03-19 09:54:00,
2013-03-19 02:55:00,51.5,42.0,30.11,SE,129,0.0,0.0,70,0.00,SCT,,0.00,WeatherDisplay:10.37,2013-03-19 09:55:00,
2013-03-19 02:57:00,51.5,42.4,30.11,SE,129,0.0,0.0,71,0.00,SCT,,0.00,WeatherDisplay:10.37,2013-03-19 09:57:00,
2013-03-19 02:59:00,51.4,41.9,30.11,SE,129,0.0,0.0,70,0.00,SCT,,0.00,WeatherDisplay:10.37,2013-03-19 09:59:00,
2013-03-19 03:00:00,51.5,42.0,30.11,SE,129,0.0,0.0,70,0.00,SCT,,0.00,WeatherDisplay:10.37,2013-03-19 10:00:00,
2013-03-19 03:01:00,51.4,41.9,30.11,SE,129,0.0,0.0,70,0.00,SCT,,0.00,WeatherDisplay:10.37,2013-03-19 10:01:00,
2013-03-19 03:02:00,51.4,41.9,30.11,SE,129,0.0,0.0,70,0.00,SCT,,0.00,WeatherDisplay:10.37,2013-03-19 10:02:00,
2013-03-19 03:04:00,51.5,42.4,30.11,SE,129,0.0,0.0,71,0.00,SCT,,0.00,WeatherDisplay:10.37,2013-03-19 10:04:00,
2013-03-19 03:05:00,51.5,42.0,30.11,SE,129,0.0,0.0,70,0.00,SCT,,0.00,WeatherDisplay:10.37,2013-03-19 10:05:00,
2013-03-19 03:07:00,51.5,42.4,30.11,SE,129,0.0,0.0,71,0.00,SCT,,0.00,WeatherDisplay:10.37,2013-03-19 10:07:00,
2013-03-19 03:08:00,51.4,41.9,30.11,SE,129,0.0,0.0,70,0.00,SCT,,0.00,WeatherDisplay:10.37,2013-03-19 10:08:00,
2013-03-19 03:09:00,51.4,41.9,30.11,SE,129,0.0,0.0,70,0.00,SCT,,0.00,WeatherDisplay:10.37,2013-03-19 10:09:00,
2013-03-19 03:10:00,51.4,41.9,30.10,SE,129,0.0,0.0,70,0.00,SCT,,0.00,WeatherDisplay:10.37,2013-03-19 10:10:00,
2013-03-19 03:12:00,51.4,41.9,30.11,SE,129,0.0,0.0,70,0.00,SCT,,0.00,WeatherDisplay:10.37,2013-03-19 10:12:00,
2013-03-19 03:13:00,51.4,41.9,30.10,SE,129,0.0,0.0,70,0.00,SCT,,0.00,WeatherDisplay:10.37,2013-03-19 10:13:00,
2013-03-19 03:15:00,51.4,41.9,30.10,SE,129,0.0,0.0,70,0.00,SCT,,0.00,WeatherDisplay:10.37,2013-03-19 10:15:00,
2013-03-19 03:16:00,51.4,41.9,30.10,SE,129,0.0,0.0,70,0.00,SCT,,0.00,WeatherDisplay:10.37,2013-03-19 10:16:00,
2013-03-19 03:17:00,51.4,41.9,30.10,SE,129,0.0,0.0,70,0.00,SCT,,0.00,WeatherDisplay:10.37,2013-03-19 10:17:00,
2013-03-19 03:18:00,51.4,41.9,30.10,SE,129,0.0,0.0,70,0.00,SCT,,0.00,WeatherDisplay:10.37,2013-03-19 10:18:00,
2013-03-19 03:20:00,51.4,42.3,30.10,SE,129,0.0,1.0,71,0.00,SCT,,0.00,WeatherDisplay:10.37,2013-03-19 10:20:00,
2013-03-19 03:21:00,51.4,42.3,30.10,SE,129,0.0,0.0,71,0.00,SCT,,0.00,WeatherDisplay:10.37,2013-03-19 10:21:00,
2013-03-19 03:22:00,51.4,42.3,30.10,SE,129,0.0,0.0,71,0.00,SCT,,0.00,WeatherDisplay:10.37,2013-03-19 10:22:00,
2013-03-19 03:24:00,51.4,41.9,30.10,SE,129,0.0,0.0,70,0.00,SCT,,0.00,WeatherDisplay:10.37,2013-03-19 10:24:00,
2013-03-19 03:25:00,51.4,42.3,30.10,SE,129,0.0,0.0,71,0.00,SCT,,0.00,WeatherDisplay:10.37,2013-03-19 10:25:00,
2013-03-19 03:27:00,51.3,42.2,30.10,SE,129,0.0,0.0,71,0.00,SCT,,0.00,WeatherDisplay:10.37,2013-03-19 10:27:00,
2013-03-19 03:28:00,51.3,42.2,30.10,SE,129,0.0,0.0,71,0.00,SCT,,0.00,WeatherDisplay:10.37,2013-03-19 10:28:00,
2013-03-19 03:30:00,51.4,42.3,30.10,SE,129,0.0,0.0,71,0.00,SCT,,0.00,WeatherDisplay:10.37,2013-03-19 10:30:00,
2013-03-19 03:32:00,51.3,42.2,30.10,SE,129,0.0,0.0,71,0.00,SCT,,0.00,WeatherDisplay:10.37,2013-03-19 10:32:00,
2013-03-19 03:34:00,51.3,42.2,30.10,SE,129,0.0,0.0,71,0.00,SCT,,0.00,WeatherDisplay:10.37,2013-03-19 10:34:00,
2013-03-19 03:35:00,51.3,42.2,30.10,SE,129,0.0,0.0,71,0.00,SCT,,0.00,WeatherDisplay:10.37,2013-03-19 10:35:00,
2013-03-19 03:39:00,51.3,42.2,30.10,SE,129,0.0,0.0,71,0.00,SCT,,0.00,WeatherDisplay:10.37,2013-03-19 10:39:00,
2013-03-19 03:40:00,51.3,42.2,30.10,SE,129,0.0,0.0,71,0.00,SCT,,0.00,WeatherDisplay:10.37,2013-03-19 10:40:00,
2013-03-19 03:41:00,51.3,42.2,30.10,SE,129,0.0,0.0,71,0.00,SCT,,0.00,WeatherDisplay:10.37,2013-03-19 10:41:00,
2013-03-19 03:45:00,51.3,42.2,30.10,SE,129,0.0,0.0,71,0.00,SCT,,0.00,WeatherDisplay:10.37,2013-03-19 10:45:00,
2013-03-19 03:46:00,51.3,42.2,30.10,SE,129,0.0,0.0,71,0.00,SCT,,0.00,WeatherDisplay:10.37,2013-03-19 10:46:00,
2013-03-19 03:47:00,51.3,42.2,30.10,SE,129,0.0,0.0,71,0.00,SCT,,0.00,WeatherDisplay:10.37,2013-03-19 10:47:00,
2013-03-19 03:50:00,51.3,42.2,30.09,SE,129,0.0,0.0,71,0.00,SCT,,0.00,WeatherDisplay:10.37,2013-03-19 10:50:00,
2013-03-19 03:51:00,51.3,42.2,30.10,SE,129,0.0,0.0,71,0.00,SCT,,0.00,WeatherDisplay:10.37,2013-03-19 10:51:00,
2013-03-19 03:52:00,51.3,42.2,30.10,SE,129,0.0,0.0,71,0.00,SCT,,0.00,WeatherDisplay:10.37,2013-03-19 10:52:00,
2013-03-19 03:55:00,51.3,42.2,30.09,SE,129,0.0,0.0,71,0.00,SCT,,0.00,WeatherDisplay:10.37,2013-03-19 10:55:00,
2013-03-19 03:57:00,51.3,42.2,30.09,SE,129,0.0,0.0,71,0.00,SCT,,0.00,WeatherDisplay:10.37,2013-03-19 10:57:00,
2013-03-19 04:00:00,51.3,42.2,30.09,SE,129,0.0,0.0,71,0.00,SCT,,0.00,WeatherDisplay:10.37,2013-03-19 11:00:00,
2013-03-19 04:02:00,51.3,42.2,30.09,SE,129,0.0,0.0,71,0.00,SCT,,0.00,WeatherDisplay:10.37,2013-03-19 11:02:00,
2013-03-19 04:03:00,51.3,42.2,30.09,SE,129,0.0,0.0,71,0.00,SCT,,0.00,WeatherDisplay:10.37,2013-03-19 11:03:00,
2013-03-19 04:07:00,51.2,42.1,30.09,SE,129,0.0,0.0,71,0.00,SCT,,0.00,WeatherDisplay:10.37,2013-03-19 11:07:00,
2013-03-19 04:08:00,51.2,42.1,30.09,SE,129,0.0,0.0,71,0.00,SCT,,0.00,WeatherDisplay:10.37,2013-03-19 11:08:00,
2013-03-19 04:09:00,51.2,42.1,30.08,SE,129,0.0,0.0,71,0.00,SCT,,0.00,WeatherDisplay:10.37,2013-03-19 11:09:00,
2013-03-19 04:12:00,51.2,42.1,30.09,SE,129,0.0,0.0,71,0.00,SCT,,0.00,WeatherDisplay:10.37,2013-03-19 11:12:00,
2013-03-19 04:13:00,51.2,42.1,30.08,SE,129,0.0,0.0,71,0.00,SCT,,0.00,WeatherDisplay:10.37,2013-03-19 11:13:00,
2013-03-19 04:14:00,51.2,42.1,30.08,SE,129,0.0,0.0,71,0.00,SCT,,0.00,WeatherDisplay:10.37,2013-03-19 11:14:00,
2013-03-19 04:17:00,51.2,42.1,30.09,NE,45,1.2,1.2,71,0.00,SCT,,0.00,WeatherDisplay:10.37,2013-03-19 11:17:00,
2013-03-19 04:18:00,51.2,42.1,30.08,NE,45,0.0,0.0,71,0.00,SCT,,0.00,WeatherDisplay:10.37,2013-03-19 11:18:00,
2013-03-19 04:19:00,51.1,42.0,30.08,NE,45,0.0,0.0,71,0.00,SCT,,0.00,WeatherDisplay:10.37,2013-03-19 11:19:00,
2013-03-19 04:20:00,51.1,42.4,30.08,NE,45,0.0,0.0,72,0.00,SCT,,0.00,WeatherDisplay:10.37,2013-03-19 11:20:00,
2013-03-19 04:22:00,51.1,42.4,30.08,NE,45,1.2,0.0,72,0.00,SCT,,0.00,WeatherDisplay:10.37,2013-03-19 11:22:00,
2013-03-19 04:25:00,51.1,42.4,30.08,NE,45,1.2,1.2,72,0.00,SCT,,0.00,WeatherDisplay:10.37,2013-03-19 11:25:00,
2013-03-19 04:26:00,51.0,42.3,30.08,NE,42,1.2,1.2,72,0.00,SCT,,0.00,WeatherDisplay:10.37,2013-03-19 11:26:00,
2013-03-19 04:27:00,51.0,42.3,30.08,NE,41,2.3,2.3,72,0.00,SCT,,0.00,WeatherDisplay:10.37,2013-03-19 11:27:00,
2013-03-19 04:30:00,51.0,42.3,30.08,NE,40,1.2,1.2,72,0.00,SCT,,0.00,WeatherDisplay:10.37,2013-03-19 11:30:00,
2013-03-19 04:32:00,50.9,42.2,30.08,NE,41,0.0,0.0,72,0.00,SCT,,0.00,WeatherDisplay:10.37,2013-03-19 11:32:00,
2013-03-19 04:33:00,50.9,42.2,30.08,NE,40,0.0,0.0,72,0.00,SCT,,0.00,WeatherDisplay:10.37,2013-03-19 11:33:00,
2013-03-19 04:35:00,50.9,42.2,30.08,NE,41,1.2,0.0,72,0.00,SCT,,0.00,WeatherDisplay:10.37,2013-03-19 11:35:00,
2013-03-19 04:37:00,50.9,42.2,30.08,NE,40,0.0,0.0,72,0.00,SCT,,0.00,WeatherDisplay:10.37,2013-03-19 11:37:00,
2013-03-19 04:38:00,50.9,42.2,30.09,NE,40,0.0,0.0,72,0.00,SCT,,0.00,WeatherDisplay:10.37,2013-03-19 11:38:00,
2013-03-19 04:39:00,50.9,42.2,30.08,NE,40,0.0,0.0,72,0.00,SCT,,0.00,WeatherDisplay:10.37,2013-03-19 11:39:00,
2013-03-19 04:41:00,50.8,42.1,30.08,NE,41,0.0,0.0,72,0.00,SCT,,0.00,WeatherDisplay:10.37,2013-03-19 11:41:00,
2013-03-19 04:42:00,50.8,42.1,30.08,NE,40,0.0,0.0,72,0.00,SCT,,0.00,WeatherDisplay:10.37,2013-03-19 11:42:00,
2013-03-19 04:44:00,50.8,42.1,30.08,NE,40,0.0,0.0,72,0.00,SCT,,0.00,WeatherDisplay:10.37,2013-03-19 11:44:00,
2013-03-19 04:46:00,50.8,42.1,30.08,NE,40,0.0,0.0,72,0.00,SCT,,0.00,WeatherDisplay:10.37,2013-03-19 11:46:00,
2013-03-19 04:47:00,50.7,42.0,30.08,NE,41,0.0,0.0,72,0.00,SCT,,0.00,WeatherDisplay:10.37,2013-03-19 11:47:00,
2013-03-19 04:49:00,50.7,42.0,30.08,NE,40,0.0,0.0,72,0.00,SCT,,0.00,WeatherDisplay:10.37,2013-03-19 11:49:00,
2013-03-19 04:52:00,50.6,41.9,30.08,NE,41,0.0,0.0,72,0.00,SCT,,0.00,WeatherDisplay:10.37,2013-03-19 11:52:00,
2013-03-19 04:53:00,50.6,41.9,30.09,NE,41,0.0,0.0,72,0.00,SCT,,0.00,WeatherDisplay:10.37,2013-03-19 11:53:00,
2013-03-19 04:55:00,50.6,41.9,30.09,NE,41,0.0,0.0,72,0.00,SCT,,0.00,WeatherDisplay:10.37,2013-03-19 11:55:00,
2013-03-19 04:58:00,50.5,41.8,30.09,NE,40,0.0,0.0,72,0.00,SCT,,0.00,WeatherDisplay:10.37,2013-03-19 11:58:00,
2013-03-19 05:00:00,50.5,41.8,30.09,NE,40,0.0,0.0,72,0.00,SCT,,0.00,WeatherDisplay:10.37,2013-03-19 12:00:00,
2013-03-19 05:01:00,50.5,41.8,30.09,NE,40,0.0,0.0,72,0.00,SCT,,0.00,WeatherDisplay:10.37,2013-03-19 12:01:00,
2013-03-19 05:03:00,50.5,41.8,30.09,NE,40,0.0,0.0,72,0.00,SCT,,0.00,WeatherDisplay:10.37,2013-03-19 12:03:00,
2013-03-19 05:04:00,50.5,41.8,30.09,NE,41,0.0,0.0,72,0.00,SCT,,0.00,WeatherDisplay:10.37,2013-03-19 12:04:00,
2013-03-19 05:05:00,50.4,41.7,30.09,NE,40,0.0,0.0,72,0.00,SCT,,0.00,WeatherDisplay:10.37,2013-03-19 12:05:00,
2013-03-19 05:06:00,50.4,41.7,30.09,NE,40,0.0,0.0,72,0.00,SCT,,0.00,WeatherDisplay:10.37,2013-03-19 12:06:00,
2013-03-19 05:08:00,50.3,41.6,30.09,NE,40,0.0,0.0,72,0.00,SCT,,0.00,WeatherDisplay:10.37,2013-03-19 12:08:00,
2013-03-19 05:09:00,50.3,41.6,30.09,NE,40,0.0,0.0,72,0.00,SCT,,0.00,WeatherDisplay:10.37,2013-03-19 12:09:00,
2013-03-19 05:10:00,50.3,41.6,30.09,NE,41,0.0,0.0,72,0.00,SCT,,0.00,WeatherDisplay:10.37,2013-03-19 12:10:00,
2013-03-19 05:12:00,50.2,41.5,30.09,NE,40,0.0,0.0,72,0.00,SCT,,0.00,WeatherDisplay:10.37,2013-03-19 12:12:00,
2013-03-19 05:13:00,50.2,41.5,30.09,NE,40,0.0,0.0,72,0.00,SCT,,0.00,WeatherDisplay:10.37,2013-03-19 12:13:00,
2013-03-19 05:14:00,50.1,41.4,30.09,NE,40,0.0,0.0,72,0.00,SCT,,0.00,WeatherDisplay:10.37,2013-03-19 12:14:00,
2013-03-19 05:16:00,50.1,41.4,30.09,NE,40,0.0,0.0,72,0.00,SCT,,0.00,WeatherDisplay:10.37,2013-03-19 12:16:00,
2013-03-19 05:18:00,50.0,41.3,30.09,NE,41,0.0,0.0,72,0.00,SCT,,0.00,WeatherDisplay:10.37,2013-03-19 12:18:00,
2013-03-19 05:19:00,50.0,41.3,30.09,NE,40,0.0,0.0,72,0.00,SCT,,0.00,WeatherDisplay:10.37,2013-03-19 12:19:00,
2013-03-19 05:22:00,49.9,41.2,30.09,NE,40,0.0,0.0,72,0.00,SCT,,0.00,WeatherDisplay:10.37,2013-03-19 12:22:00,
2013-03-19 05:23:00,49.9,41.2,30.09,NE,40,0.0,0.0,72,0.00,SCT,,0.00,WeatherDisplay:10.37,2013-03-19 12:23:00,
2013-03-19 05:24:00,49.9,41.2,30.09,NE,40,0.0,0.0,72,0.00,SCT,,0.00,WeatherDisplay:10.37,2013-03-19 12:24:00,
2013-03-19 05:27:00,49.8,41.1,30.09,NE,40,0.0,0.0,72,0.00,SCT,,0.00,WeatherDisplay:10.37,2013-03-19 12:27:00,
2013-03-19 05:28:00,49.8,41.1,30.09,NE,41,0.0,0.0,72,0.00,SCT,,0.00,WeatherDisplay:10.37,2013-03-19 12:28:00,
2013-03-19 05:29:00,49.8,41.1,30.09,NE,40,0.0,0.0,72,0.00,SCT,,0.00,WeatherDisplay:10.37,2013-03-19 12:29:00,
2013-03-19 05:32:00,49.7,41.0,30.09,NE,41,0.0,0.0,72,0.00,SCT,,0.00,WeatherDisplay:10.37,2013-03-19 12:32:00,
2013-03-19 05:34:00,49.6,40.9,30.10,NE,40,0.0,0.0,72,0.00,SCT,,0.00,WeatherDisplay:10.37,2013-03-19 12:34:00,
2013-03-19 05:35:00,49.6,40.9,30.10,NE,40,0.0,0.0,72,0.00,SCT,,0.00,WeatherDisplay:10.37,2013-03-19 12:35:00,
2013-03-19 05:39:00,49.6,40.9,30.09,NE,40,0.0,0.0,72,0.00,SCT,,0.00,WeatherDisplay:10.37,2013-03-19 12:39:00,
2013-03-19 05:40:00,49.5,40.9,30.09,NE,40,0.0,0.0,72,0.00,SCT,,0.00,WeatherDisplay:10.37,2013-03-19 12:40:00,
2013-03-19 05:44:00,49.4,40.4,30.09,NE,41,0.0,0.0,71,0.00,SCT,,0.00,WeatherDisplay:10.37,2013-03-19 12:44:00,
2013-03-19 05:45:00,49.4,40.4,30.10,NE,40,0.0,0.0,71,0.00,SCT,,0.00,WeatherDisplay:10.37,2013-03-19 12:45:00,
2013-03-19 05:49:00,49.3,40.7,30.10,NE,41,0.0,0.0,72,0.00,SCT,,0.00,WeatherDisplay:10.37,2013-03-19 12:49:00,
2013-03-19 05:50:00,49.2,40.2,30.10,NE,40,0.0,0.0,71,0.00,SCT,,0.00,WeatherDisplay:10.37,2013-03-19 12:50:00,
2013-03-19 05:54:00,49.2,40.6,30.10,NE,40,0.0,0.0,72,0.00,SCT,,0.00,WeatherDisplay:10.37,2013-03-19 12:54:00,
2013-03-19 05:55:00,49.1,40.5,30.10,NE,41,0.0,0.0,72,0.00,SCT,,0.00,WeatherDisplay:10.37,2013-03-19 12:55:00,
2013-03-19 06:00:00,49.0,40.0,30.10,NE,41,0.0,0.0,71,0.00,SCT,,0.00,WeatherDisplay:10.37,2013-03-19 13:00:00,
2013-03-19 06:01:00,49.0,40.0,30.10,NE,40,0.0,0.0,71,0.00,SCT,,0.00,WeatherDisplay:10.37,2013-03-19 13:01:00,
2013-03-19 06:05:00,48.9,39.9,30.10,NE,40,0.0,0.0,71,0.00,SCT,,0.00,WeatherDisplay:10.37,2013-03-19 13:05:00,
2013-03-19 06:06:00,48.8,39.8,30.10,NE,40,0.0,0.0,71,0.00,SCT,,0.00,WeatherDisplay:10.37,2013-03-19 13:06:00,
2013-03-19 06:07:00,48.8,39.8,30.10,NE,40,0.0,0.0,71,0.00,SCT,,0.00,WeatherDisplay:10.37,2013-03-19 13:07:00,
2013-03-19 06:10:00,48.7,40.1,30.10,NE,41,0.0,0.0,72,0.00,SCT,,0.00,WeatherDisplay:10.37,2013-03-19 13:10:00,
2013-03-19 06:12:00,48.7,40.1,30.10,NE,40,0.0,0.0,72,0.00,SCT,,0.00,WeatherDisplay:10.37,2013-03-19 13:12:00,
2013-03-19 06:16:00,48.7,40.1,30.10,NE,41,0.0,0.0,72,0.00,SCT,,0.00,WeatherDisplay:10.37,2013-03-19 13:16:00,
2013-03-19 06:17:00,48.7,39.7,30.10,NE,40,0.0,0.0,71,0.00,SCT,,0.00,WeatherDisplay:10.37,2013-03-19 13:17:00,
2013-03-19 06:21:00,48.7,39.7,30.10,NE,41,0.0,0.0,71,0.00,SCT,,0.00,WeatherDisplay:10.37,2013-03-19 13:21:00,
2013-03-19 06:22:00,48.7,39.7,30.10,NE,41,0.0,0.0,71,0.00,SCT,,0.00,WeatherDisplay:10.37,2013-03-19 13:22:00,
2013-03-19 06:23:00,48.7,39.7,30.10,NE,40,0.0,0.0,71,0.00,SCT,,0.00,WeatherDisplay:10.37,2013-03-19 13:23:00,
2013-03-19 06:26:00,48.7,39.7,30.10,NE,41,0.0,0.0,71,0.00,SCT,,0.00,WeatherDisplay:10.37,2013-03-19 13:26:00,
2013-03-19 06:28:00,48.6,39.6,30.10,NE,40,0.0,0.0,71,0.00,SCT,,0.00,WeatherDisplay:10.37,2013-03-19 13:28:00,
2013-03-19 06:32:00,48.5,39.5,30.10,NE,41,0.0,0.0,71,0.00,SCT,,0.00,WeatherDisplay:10.37,2013-03-19 13:32:00,
2013-03-19 06:33:00,48.5,39.5,30.11,NE,41,0.0,0.0,71,0.00,SCT,,0.00,WeatherDisplay:10.37,2013-03-19 13:33:00,
2013-03-19 06:34:00,48.4,39.4,30.11,NE,40,0.0,0.0,71,0.00,SCT,,0.00,WeatherDisplay:10.37,2013-03-19 13:34:00,
2013-03-19 06:38:00,48.4,39.4,30.11,NE,40,0.0,0.0,71,0.00,SCT,,0.00,WeatherDisplay:10.37,2013-03-19 13:38:00,
2013-03-19 06:39:00,48.3,39.3,30.10,NE,40,0.0,0.0,71,0.00,SCT,,0.00,WeatherDisplay:10.37,2013-03-19 13:39:00,
2013-03-19 06:40:00,48.3,39.3,30.10,NE,40,0.0,0.0,71,0.00,SCT,,0.00,WeatherDisplay:10.37,2013-03-19 13:40:00,
2013-03-19 06:43:00,48.3,39.3,30.10,NE,41,0.0,0.0,71,0.00,SCT,,0.00,WeatherDisplay:10.37,2013-03-19 13:43:00,
2013-03-19 06:44:00,48.2,39.2,30.10,NE,40,0.0,0.0,71,0.00,SCT,,0.00,WeatherDisplay:10.37,2013-03-19 13:44:00,
2013-03-19 06:45:00,48.2,39.2,30.10,NE,40,0.0,0.0,71,0.00,SCT,,0.00,WeatherDisplay:10.37,2013-03-19 13:45:00,
2013-03-19 06:49:00,48.1,39.1,30.10,NE,40,0.0,0.0,71,0.00,SCT,,0.00,WeatherDisplay:10.37,2013-03-19 13:49:00,
2013-03-19 06:50:00,48.1,39.1,30.10,NE,40,0.0,0.0,71,0.00,SCT,,0.00,WeatherDisplay:10.37,2013-03-19 13:50:00,
2013-03-19 06:54:00,47.9,38.9,30.10,NE,41,0.0,0.0,71,0.00,SCT,,0.00,WeatherDisplay:10.37,2013-03-19 13:54:00,
2013-03-19 06:55:00,47.9,38.9,30.11,NE,40,0.0,0.0,71,0.00,SCT,,0.00,WeatherDisplay:10.37,2013-03-19 13:55:00,
2013-03-19 06:56:00,47.9,38.9,30.11,NE,40,0.0,0.0,71,0.00,SCT,,0.00,WeatherDisplay:10.37,2013-03-19 13:56:00,
2013-03-19 06:57:00,47.9,38.9,30.11,NE,40,0.0,0.0,71,0.00,SCT,,0.00,WeatherDisplay:10.37,2013-03-19 13:57:00,
2013-03-19 06:59:00,47.8,38.8,30.10,NE,40,0.0,0.0,71,0.00,SCT,,0.00,WeatherDisplay:10.37,2013-03-19 13:59:00,
2013-03-19 07:01:00,47.8,38.8,30.11,NE,40,0.0,0.0,71,0.00,SCT,,0.00,WeatherDisplay:10.37,2013-03-19 14:01:00,
2013-03-19 07:02:00,47.8,38.8,30.11,NE,40,0.0,0.0,71,0.00,SCT,,0.00,WeatherDisplay:10.37,2013-03-19 14:02:00,
2013-03-19 07:07:00,47.8,38.8,30.11,NE,40,0.0,0.0,71,0.00,SCT,,0.00,WeatherDisplay:10.37,2013-03-19 14:07:00,
2013-03-19 07:12:00,47.7,38.8,30.11,NE,40,0.0,0.0,71,0.00,SCT,,0.00,WeatherDisplay:10.37,2013-03-19 14:12:00,
2013-03-19 07:13:00,47.7,38.8,30.11,NE,40,0.0,0.0,71,0.00,SCT,,0.00,WeatherDisplay:10.37,2013-03-19 14:13:00,
2013-03-19 07:14:00,47.7,38.8,30.11,NE,40,0.0,0.0,71,0.00,SCT,,0.00,WeatherDisplay:10.37,2013-03-19 14:14:00,
2013-03-19 07:17:00,47.6,39.0,30.12,NE,40,0.0,0.0,72,0.00,SCT,,0.00,WeatherDisplay:10.37,2013-03-19 14:17:00,
2013-03-19 07:18:00,47.5,38.6,30.12,NE,40,0.0,0.0,71,0.00,SCT,,0.00,WeatherDisplay:10.37,2013-03-19 14:18:00,
2013-03-19 07:19:00,47.6,39.0,30.12,NE,40,0.0,0.0,72,0.00,SCT,,0.00,WeatherDisplay:10.37,2013-03-19 14:19:00,
2013-03-19 07:23:00,47.5,38.9,30.12,NE,40,0.0,0.0,72,0.00,SCT,,0.00,WeatherDisplay:10.37,2013-03-19 14:23:00,
2013-03-19 07:24:00,47.5,38.9,30.12,NE,40,0.0,0.0,72,0.00,SCT,,0.00,WeatherDisplay:10.37,2013-03-19 14:24:00,
2013-03-19 07:25:00,47.5,38.9,30.12,NE,40,0.0,0.0,72,0.00,SCT,,0.00,WeatherDisplay:10.37,2013-03-19 14:25:00,
2013-03-19 07:28:00,47.5,38.9,30.12,NE,40,0.0,0.0,72,0.00,SCT,,0.00,WeatherDisplay:10.37,2013-03-19 14:28:00,
2013-03-19 07:29:00,47.5,38.9,30.12,NE,40,0.0,0.0,72,0.00,SCT,,0.00,WeatherDisplay:10.37,2013-03-19 14:29:00,
2013-03-19 07:31:00,47.5,38.6,30.12,NE,40,0.0,0.0,71,0.00,SCT,,0.00,WeatherDisplay:10.37,2013-03-19 14:31:00,
2013-03-19 07:34:00,47.6,38.7,30.12,NE,40,0.0,0.0,71,0.00,SCT,,0.00,WeatherDisplay:10.37,2013-03-19 14:34:00,
2013-03-19 07:35:00,47.6,38.7,30.12,NE,40,0.0,0.0,71,0.00,SCT,,0.00,WeatherDisplay:10.37,2013-03-19 14:35:00,
2013-03-19 07:37:00,47.6,38.7,30.12,NE,40,0.0,0.0,71,0.00,SCT,,0.00,WeatherDisplay:10.37,2013-03-19 14:37:00,
2013-03-19 07:39:00,47.6,38.7,30.12,NE,40,0.0,0.0,71,0.00,SCT,,0.00,WeatherDisplay:10.37,2013-03-19 14:39:00,
2013-03-19 07:40:00,47.6,38.7,30.12,NE,40,0.0,0.0,71,0.00,SCT,,0.00,WeatherDisplay:10.37,2013-03-19 14:40:00,
2013-03-19 07:42:00,47.7,38.8,30.12,NE,40,0.0,0.0,71,0.00,SCT,,0.00,WeatherDisplay:10.37,2013-03-19 14:42:00,
2013-03-19 07:45:00,47.8,38.8,30.12,NE,40,0.0,0.0,71,0.00,SCT,,0.00,WeatherDisplay:10.37,2013-03-19 14:45:00,
2013-03-19 07:46:00,47.8,38.8,30.12,NE,40,0.0,0.0,71,0.00,SCT,,0.00,WeatherDisplay:10.37,2013-03-19 14:46:00,
2013-03-19 07:47:00,47.8,38.8,30.12,NE,40,0.0,0.0,71,0.00,SCT,,0.00,WeatherDisplay:10.37,2013-03-19 14:47:00,
2013-03-19 07:50:00,47.9,38.9,30.12,NE,40,0.0,0.0,71,0.00,SCT,,0.00,WeatherDisplay:10.37,2013-03-19 14:50:00,
2013-03-19 07:51:00,48.0,39.0,30.12,NE,41,0.0,0.0,71,0.00,SCT,,0.00,WeatherDisplay:10.37,2013-03-19 14:51:00,
2013-03-19 07:55:00,48.2,39.6,30.12,NE,41,0.0,0.0,72,0.00,SCT,,0.00,WeatherDisplay:10.37,2013-03-19 14:55:00,
2013-03-19 07:56:00,48.3,39.7,30.12,NE,40,0.0,0.0,72,0.00,SCT,,0.00,WeatherDisplay:10.37,2013-03-19 14:56:00,
2013-03-19 07:57:00,48.3,39.7,30.12,NE,40,0.0,0.0,72,0.00,SCT,,0.00,WeatherDisplay:10.37,2013-03-19 14:57:00,
2013-03-19 08:01:00,48.4,39.8,30.13,NE,40,0.0,0.0,72,0.00,SCT,,0.00,WeatherDisplay:10.37,2013-03-19 15:01:00,
2013-03-19 08:02:00,48.5,39.9,30.12,NE,41,0.0,0.0,72,0.00,SCT,,0.00,WeatherDisplay:10.37,2013-03-19 15:02:00,
2013-03-19 08:07:00,48.8,40.2,30.12,NE,40,0.0,0.0,72,0.00,SCT,,0.00,WeatherDisplay:10.37,2013-03-19 15:07:00,
2013-03-19 08:08:00,48.9,39.9,30.12,NE,41,0.0,0.0,71,0.00,SCT,,0.00,WeatherDisplay:10.37,2013-03-19 15:08:00,
2013-03-19 08:12:00,49.1,40.1,30.12,NE,41,0.0,0.0,71,0.00,SCT,,0.00,WeatherDisplay:10.37,2013-03-19 15:12:00,
2013-03-19 08:13:00,49.2,40.2,30.12,NE,40,0.0,0.0,71,0.00,SCT,,0.00,WeatherDisplay:10.37,2013-03-19 15:13:00,
2013-03-19 08:14:00,49.2,40.2,30.12,NE,40,0.0,0.0,71,0.00,SCT,,0.00,WeatherDisplay:10.37,2013-03-19 15:14:00,
2013-03-19 08:17:00,49.6,40.6,30.12,NE,41,0.0,0.0,71,0.00,SCT,,0.00,WeatherDisplay:10.37,2013-03-19 15:17:00,
2013-03-19 08:18:00,49.7,40.7,30.13,NE,40,0.0,0.0,71,0.00,SCT,,0.00,WeatherDisplay:10.37,2013-03-19 15:18:00,
2013-03-19 08:19:00,49.8,40.8,30.12,NE,40,0.0,0.0,71,0.00,SCT,,0.00,WeatherDisplay:10.37,2013-03-19 15:19:00,
2013-03-19 08:22:00,50.2,40.8,30.13,NNE,13,2.3,2.3,70,0.00,SCT,,0.00,WeatherDisplay:10.37,2013-03-19 15:22:00,
2013-03-19 08:23:00,50.2,40.8,30.13,NNE,13,2.3,2.3,70,0.00,SCT,,0.00,WeatherDisplay:10.37,2013-03-19 15:23:00,
2013-03-19 08:24:00,50.3,40.5,30.13,NNE,13,0.0,0.0,69,0.00,SCT,,0.00,WeatherDisplay:10.37,2013-03-19 15:24:00,
2013-03-19 08:27:00,50.6,40.8,30.13,NE,44,2.3,2.3,69,0.00,SCT,,0.00,WeatherDisplay:10.37,2013-03-19 15:27:00,
2013-03-19 08:28:00,50.6,40.8,30.13,NE,44,2.3,2.3,69,0.00,SCT,,0.00,WeatherDisplay:10.37,2013-03-19 15:28:00,
2013-03-19 08:30:00,50.8,41.0,30.13,NE,44,2.0,2.0,69,0.00,SCT,,0.00,WeatherDisplay:10.37,2013-03-19 15:30:00,
2013-03-19 08:32:00,50.9,41.1,30.12,North,8,2.3,2.3,69,0.00,SCT,,0.00,WeatherDisplay:10.37,2013-03-19 15:32:00,
2013-03-19 08:33:00,51.0,41.2,30.12,North,8,3.0,3.0,69,0.00,SCT,,0.00,WeatherDisplay:10.37,2013-03-19 15:33:00,
2013-03-19 08:36:00,51.0,41.2,30.12,NNE,29,3.5,3.5,69,0.00,SCT,,0.00,WeatherDisplay:10.37,2013-03-19 15:36:00,
2013-03-19 08:37:00,51.0,41.2,30.12,NNE,29,3.5,3.5,69,0.00,SCT,,0.00,WeatherDisplay:10.37,2013-03-19 15:37:00,
2013-03-19 08:38:00,51.0,41.2,30.12,NNE,29,1.2,1.2,69,0.00,SCT,,0.00,WeatherDisplay:10.37,2013-03-19 15:38:00,
2013-03-19 08:43:00,51.3,41.5,30.13,North,11,1.0,1.0,69,0.00,SCT,,0.00,WeatherDisplay:10.37,2013-03-19 15:43:00,
2013-03-19 08:44:00,51.3,41.5,30.13,North,11,2.3,2.3,69,0.00,SCT,,0.00,WeatherDisplay:10.37,2013-03-19 15:44:00,
2013-03-19 08:48:00,51.5,41.7,30.13,North,8,3.5,3.5,69,0.00,SCT,,0.00,WeatherDisplay:10.37,2013-03-19 15:48:00,
2013-03-19 08:49:00,51.6,41.8,30.13,North,354,1.2,1.2,69,0.00,SCT,,0.00,WeatherDisplay:10.37,2013-03-19 15:49:00,
2013-03-19 08:50:00,51.6,41.4,30.13,North,5,1.0,4.0,68,0.00,SCT,,0.00,WeatherDisplay:10.37,2013-03-19 15:50:00,
2013-03-19 08:53:00,51.8,41.6,30.13,North,8,3.0,3.0,68,0.00,SCT,,0.00,WeatherDisplay:10.37,2013-03-19 15:53:00,
2013-03-19 08:54:00,51.8,41.9,30.13,North,5,3.0,3.0,69,0.00,SCT,,0.00,WeatherDisplay:10.37,2013-03-19 15:54:00,
2013-03-19 08:55:00,51.9,41.7,30.13,North,357,3.5,3.5,68,0.00,SCT,,0.00,WeatherDisplay:10.37,2013-03-19 15:55:00,
2013-03-19 08:58:00,52.0,41.8,30.13,North,350,2.3,2.3,68,0.00,SCT,,0.00,WeatherDisplay:10.37,2013-03-19 15:58:00,
2013-03-19 08:59:00,52.0,41.8,30.13,North,353,3.0,3.0,68,0.00,SCT,,0.00,WeatherDisplay:10.37,2013-03-19 15:59:00,
2013-03-19 09:01:00,52.1,41.9,30.13,North,350,3.5,3.5,68,0.00,SCT,,0.00,WeatherDisplay:10.37,2013-03-19 16:01:00,
2013-03-19 09:02:00,52.2,42.0,30.13,NNE,15,3.0,3.0,68,0.00,SCT,,0.00,WeatherDisplay:10.37,2013-03-19 16:02:00,
2013-03-19 09:03:00,52.2,42.0,30.13,NNE,30,3.5,3.5,68,0.00,SCT,,0.00,WeatherDisplay:10.37,2013-03-19 16:03:00,
2013-03-19 09:04:00,52.4,42.1,30.13,North,358,3.5,3.5,68,0.00,SCT,,0.00,WeatherDisplay:10.37,2013-03-19 16:04:00,
2013-03-19 09:07:00,52.5,41.9,30.13,North,355,1.2,1.2,67,0.00,SCT,,0.00,WeatherDisplay:10.37,2013-03-19 16:07:00,
2013-03-19 09:08:00,52.6,41.9,30.13,North,355,1.2,1.2,67,0.00,SCT,,0.00,WeatherDisplay:10.37,2013-03-19 16:08:00,
2013-03-19 09:09:00,52.7,42.0,30.13,North,355,0.0,0.0,67,0.00,SCT,,0.00,WeatherDisplay:10.37,2013-03-19 16:09:00,
2013-03-19 09:12:00,52.8,42.1,30.13,NNE,12,4.0,4.0,67,0.00,SCT,,0.00,WeatherDisplay:10.37,2013-03-19 16:12:00,
2013-03-19 09:13:00,52.9,42.2,30.13,NNE,14,3.5,3.5,67,0.00,SCT,,0.00,WeatherDisplay:10.37,2013-03-19 16:13:00,
2013-03-19 09:14:00,52.9,42.2,30.13,North,7,3.5,3.5,67,0.00,SCT,,0.00,WeatherDisplay:10.37,2013-03-19 16:14:00,
2013-03-19 09:18:00,53.1,42.0,30.13,NNW,347,3.5,3.5,66,0.00,SCT,,0.00,WeatherDisplay:10.37,2013-03-19 16:18:00,
2013-03-19 09:19:00,53.1,42.0,30.13,NNW,346,1.0,0.0,66,0.00,SCT,,0.00,WeatherDisplay:10.37,2013-03-19 16:19:00,
2013-03-19 09:22:00,53.2,42.1,30.13,NNW,346,0.0,0.0,66,0.00,SCT,,0.00,WeatherDisplay:10.37,2013-03-19 16:22:00,
2013-03-19 09:23:00,53.2,42.1,30.13,NNW,346,1.2,1.2,66,0.00,SCT,,0.00,WeatherDisplay:10.37,2013-03-19 16:23:00,
2013-03-19 09:24:00,53.3,42.2,30.13,NNW,346,2.3,2.3,66,0.00,SCT,,0.00,WeatherDisplay:10.37,2013-03-19 16:24:00,
2013-03-19 09:29:00,53.6,42.1,30.13,North,359,0.0,0.0,65,0.00,SCT,,0.00,WeatherDisplay:10.37,2013-03-19 16:29:00,
2013-03-19 09:34:00,53.9,42.0,30.13,North,359,0.0,0.0,64,0.00,SCT,,0.00,WeatherDisplay:10.37,2013-03-19 16:34:00,
2013-03-19 09:35:00,54.0,41.7,30.13,North,359,0.0,0.0,63,0.00,SCT,,0.00,WeatherDisplay:10.37,2013-03-19 16:35:00,
2013-03-19 09:39:00,54.4,42.1,30.13,NNW,333,1.2,1.2,63,0.00,SCT,,0.00,WeatherDisplay:10.37,2013-03-19 16:39:00,
2013-03-19 09:40:00,54.4,41.6,30.13,NNW,333,1.2,1.2,62,0.00,SCT,,0.00,WeatherDisplay:10.37,2013-03-19 16:40:00,
2013-03-19 09:45:00,54.9,42.1,30.12,North,358,3.5,3.5,62,0.00,SCT,,0.00,WeatherDisplay:10.37,2013-03-19 16:45:00,
2013-03-19 09:46:00,55.1,41.5,30.12,North,359,3.5,3.5,60,0.00,SCT,,0.00,WeatherDisplay:10.37,2013-03-19 16:46:00,
2013-03-19 09:50:00,55.4,42.2,30.13,NNW,346,3.5,3.5,61,0.00,SCT,,0.00,WeatherDisplay:10.37,2013-03-19 16:50:00,
2013-03-19 09:52:00,55.5,42.3,30.12,NNW,347,1.2,1.2,61,0.00,SCT,,0.00,WeatherDisplay:10.37,2013-03-19 16:52:00,
2013-03-19 09:53:00,55.6,42.4,30.12,NNE,26,2.3,2.3,61,0.00,SCT,,0.00,WeatherDisplay:10.37,2013-03-19 16:53:00,
2013-03-19 09:55:00,55.9,41.8,30.12,NNE,23,3.5,3.5,59,0.00,SCT,,0.00,WeatherDisplay:10.37,2013-03-19 16:55:00,
2013-03-19 09:56:00,56.0,41.9,30.12,NNE,26,3.5,3.5,59,0.00,SCT,,0.00,WeatherDisplay:10.37,2013-03-19 16:56:00,
2013-03-19 09:57:00,56.0,41.9,30.12,NNE,17,3.5,3.5,59,0.00,SCT,,0.00,WeatherDisplay:10.37,2013-03-19 16:57:00,
2013-03-19 09:58:00,56.1,42.0,30.12,NNE,12,3.5,3.5,59,0.00,SCT,,0.00,WeatherDisplay:10.37,2013-03-19 16:58:00,
2013-03-19 10:02:00,56.4,42.2,30.12,NNE,12,1.0,1.0,59,0.00,SCT,,0.00,WeatherDisplay:10.37,2013-03-19 17:02:00,
2013-03-19 10:03:00,56.5,42.3,30.12,NNE,12,1.2,0.0,59,0.00,SCT,,0.00,WeatherDisplay:10.37,2013-03-19 17:03:00,
2013-03-19 10:07:00,57.0,42.4,30.13,NNE,12,2.3,2.3,58,0.00,SCT,,0.00,WeatherDisplay:10.37,2013-03-19 17:07:00,
2013-03-19 10:08:00,57.1,42.0,30.12,NNE,12,0.0,0.0,57,0.00,SCT,,0.00,WeatherDisplay:10.37,2013-03-19 17:08:00,
2013-03-19 10:10:00,57.3,41.7,30.13,NNE,12,0.0,0.0,56,0.00,SCT,,0.00,WeatherDisplay:10.37,2013-03-19 17:10:00,
2013-03-19 10:13:00,57.5,41.9,30.12,NNE,12,0.0,0.0,56,0.00,SCT,,0.00,WeatherDisplay:10.37,2013-03-19 17:13:00,
2013-03-19 10:14:00,57.7,42.1,30.13,NNE,12,0.0,0.0,56,0.00,SCT,,0.00,WeatherDisplay:10.37,2013-03-19 17:14:00,
2013-03-19 10:15:00,57.7,41.6,30.13,NNE,12,0.0,0.0,55,0.00,SCT,,0.00,WeatherDisplay:10.37,2013-03-19 17:15:00,
2013-03-19 10:18:00,58.0,41.4,30.13,NNE,12,0.0,0.0,54,0.00,SCT,,0.00,WeatherDisplay:10.37,2013-03-19 17:18:00,
2013-03-19 10:20:00,58.2,40.6,30.13,NNE,12,0.0,0.0,52,0.00,SCT,,0.00,WeatherDisplay:10.37,2013-03-19 17:20:00,
2013-03-19 10:22:00,58.3,40.7,30.13,NNE,12,1.2,1.2,52,0.00,SCT,,0.00,WeatherDisplay:10.37,2013-03-19 17:22:00,
2013-03-19 10:23:00,58.4,41.3,30.13,NNE,12,1.2,0.0,53,0.00,SCT,,0.00,WeatherDisplay:10.37,2013-03-19 17:23:00,
2013-03-19 10:25:00,58.6,41.0,30.13,NNE,32,1.2,1.2,52,0.00,SCT,,0.00,WeatherDisplay:10.37,2013-03-19 17:25:00,
2013-03-19 10:29:00,59.1,41.0,30.12,NNE,32,0.0,0.0,51,0.00,SCT,,0.00,WeatherDisplay:10.37,2013-03-19 17:29:00,
2013-03-19 10:30:00,59.2,41.0,30.12,NNE,31,0.0,1.0,51,0.00,SCT,,0.00,WeatherDisplay:10.37,2013-03-19 17:30:00,
2013-03-19 10:31:00,59.3,41.2,30.12,NNE,32,0.0,0.0,51,0.00,SCT,,0.00,WeatherDisplay:10.37,2013-03-19 17:31:00,
2013-03-19 10:34:00,59.6,41.4,30.12,NNE,32,0.0,0.0,51,0.00,SCT,,0.00,WeatherDisplay:10.37,2013-03-19 17:34:00,
2013-03-19 10:35:00,59.7,41.5,30.12,NNE,32,0.0,0.0,51,0.00,SCT,,0.00,WeatherDisplay:10.37,2013-03-19 17:35:00,
2013-03-19 10:37:00,59.8,41.1,30.12,NNE,32,1.0,1.0,50,0.00,SCT,,0.00,WeatherDisplay:10.37,2013-03-19 17:37:00,
2013-03-19 10:39:00,60.1,41.9,30.13,NE,37,1.2,0.0,51,0.00,SCT,,0.00,WeatherDisplay:10.37,2013-03-19 17:39:00,
2013-03-19 10:40:00,60.2,41.0,30.13,ESE,110,3.5,3.5,49,0.00,SCT,,0.00,WeatherDisplay:10.37,2013-03-19 17:40:00,
2013-03-19 10:41:00,60.3,40.0,30.13,ESE,110,3.5,3.5,47,0.00,SCT,,0.00,WeatherDisplay:10.37,2013-03-19 17:41:00,
2013-03-19 10:42:00,60.4,40.1,30.13,South,185,5.8,5.8,47,0.00,SCT,,0.00,WeatherDisplay:10.37,2013-03-19 17:42:00,
2013-03-19 10:45:00,60.7,39.8,30.13,SSE,164,6.9,6.9,46,0.00,SCT,,0.00,WeatherDisplay:10.37,2013-03-19 17:45:00,
2013-03-19 10:48:00,61.1,39.6,30.13,SE,142,5.8,5.8,45,0.00,SCT,,0.00,WeatherDisplay:10.37,2013-03-19 17:48:00,
2013-03-19 10:49:00,61.3,39.8,30.13,SW,235,5.8,5.8,45,0.00,SCT,,0.00,WeatherDisplay:10.37,2013-03-19 17:49:00,
2013-03-19 10:50:00,61.4,39.3,30.13,SSW,210,3.5,3.5,44,0.00,SCT,,0.00,WeatherDisplay:10.37,2013-03-19 17:50:00,
2013-03-19 10:53:00,61.6,38.9,30.13,SSE,166,4.6,4.6,43,0.00,SCT,,0.00,WeatherDisplay:10.37,2013-03-19 17:53:00,
2013-03-19 10:54:00,61.7,38.4,30.13,SSE,151,3.5,3.5,42,0.00,SCT,,0.00,WeatherDisplay:10.37,2013-03-19 17:54:00,
2013-03-19 10:55:00,61.7,38.4,30.13,South,173,3.5,3.5,42,0.00,SCT,,0.00,WeatherDisplay:10.37,2013-03-19 17:55:00,
2013-03-19 10:56:00,61.8,37.8,30.13,SW,221,3.5,3.5,41,0.00,SCT,,0.00,WeatherDisplay:10.37,2013-03-19 17:56:00,
2013-03-19 10:58:00,62.0,38.0,30.13,ESE,112,4.6,4.6,41,0.00,SCT,,0.00,WeatherDisplay:10.37,2013-03-19 17:58:00,
2013-03-19 10:59:00,62.0,38.0,30.12,SE,130,3.5,3.5,41,0.00,SCT,,0.00,WeatherDisplay:10.37,2013-03-19 17:59:00,
2013-03-19 11:02:00,62.3,37.7,30.12,SE,128,3.5,3.5,40,0.00,SCT,,0.00,WeatherDisplay:10.37,2013-03-19 18:02:00,
2013-03-19 11:03:00,62.4,38.4,30.12,SE,128,3.5,0.0,41,0.00,SCT,,0.00,WeatherDisplay:10.37,2013-03-19 18:03:00,
2013-03-19 11:05:00,62.4,38.4,30.12,ESE,123,0.0,0.0,41,0.00,SCT,,0.00,WeatherDisplay:10.37,2013-03-19 18:05:00,
2013-03-19 11:07:00,62.6,39.2,30.12,SSW,207,2.3,2.3,42,0.00,SCT,,0.00,WeatherDisplay:10.37,2013-03-19 18:07:00,
2013-03-19 11:09:00,62.7,39.3,30.12,SSW,207,3.0,3.0,42,0.00,SCT,,0.00,WeatherDisplay:10.37,2013-03-19 18:09:00,
2013-03-19 11:10:00,62.8,38.7,30.12,South,186,3.5,3.5,41,0.00,SCT,,0.00,WeatherDisplay:10.37,2013-03-19 18:10:00,
2013-03-19 11:12:00,63.0,38.3,30.13,SE,130,3.5,3.5,40,0.00,SCT,,0.00,WeatherDisplay:10.37,2013-03-19 18:12:00,
2013-03-19 11:13:00,63.0,38.9,30.12,SE,130,3.5,3.5,41,0.00,SCT,,0.00,WeatherDisplay:10.37,2013-03-19 18:13:00,
2013-03-19 11:15:00,63.2,39.1,30.13,SSW,209,2.3,2.3,41,0.00,SCT,,0.00,WeatherDisplay:10.37,2013-03-19 18:15:00,
2013-03-19 11:17:00,63.4,39.3,30.12,SSW,198,1.2,1.2,41,0.00,SCT,,0.00,WeatherDisplay:10.37,2013-03-19 18:17:00,
2013-03-19 11:20:00,63.6,40.1,30.12,South,175,2.0,2.0,42,0.00,SCT,,0.00,WeatherDisplay:10.37,2013-03-19 18:20:00,
2013-03-19 11:21:00,63.7,38.9,30.12,SSW,193,2.3,2.3,40,0.00,SCT,,0.00,WeatherDisplay:10.37,2013-03-19 18:21:00,
2013-03-19 11:23:00,63.9,39.1,30.12,SSW,194,1.2,1.2,40,0.00,SCT,,0.00,WeatherDisplay:10.37,2013-03-19 18:23:00,
2013-03-19 11:26:00,64.2,38.0,30.12,WSW,239,2.3,2.3,38,0.00,SCT,,0.00,WeatherDisplay:10.37,2013-03-19 18:26:00,
2013-03-19 11:28:00,64.4,38.2,30.12,WSW,239,0.0,0.0,38,0.00,SCT,,0.00,WeatherDisplay:10.37,2013-03-19 18:28:00,
2013-03-19 11:29:00,64.6,37.0,30.12,WSW,239,0.0,0.0,36,0.00,SCT,,0.00,WeatherDisplay:10.37,2013-03-19 18:29:00,
2013-03-19 11:31:00,64.7,37.8,30.12,WSW,239,0.0,0.0,37,0.00,SCT,,0.00,WeatherDisplay:10.37,2013-03-19 18:31:00,
2013-03-19 11:33:00,64.9,38.0,30.12,East,95,0.0,0.2,37,0.00,SCT,,0.00,WeatherDisplay:10.37,2013-03-19 18:33:00,
2013-03-19 11:37:00,65.4,37.7,30.12,ESE,121,2.3,2.3,36,0.00,SCT,,0.00,WeatherDisplay:10.37,2013-03-19 18:37:00,
2013-03-19 11:38:00,65.6,38.6,30.12,ESE,121,1.2,0.0,37,0.00,SCT,,0.00,WeatherDisplay:10.37,2013-03-19 18:38:00,
2013-03-19 11:42:00,66.0,36.8,30.12,SSE,151,1.2,1.2,34,0.00,SCT,,0.00,WeatherDisplay:10.37,2013-03-19 18:42:00,
2013-03-19 11:43:00,66.0,37.5,30.12,SSE,151,1.2,1.2,35,0.00,SCT,,0.00,WeatherDisplay:10.37,2013-03-19 18:43:00,
2013-03-19 11:44:00,66.2,37.7,30.12,SSE,151,1.2,1.2,35,0.00,SCT,,0.00,WeatherDisplay:10.37,2013-03-19 18:44:00,
2013-03-19 11:48:00,66.5,38.0,30.12,SE,126,4.6,4.6,35,0.00,SCT,,0.00,WeatherDisplay:10.37,2013-03-19 18:48:00,
2013-03-19 11:49:00,66.7,38.9,30.12,SE,136,2.3,2.3,36,0.00,SCT,,0.00,WeatherDisplay:10.37,2013-03-19 18:49:00,
2013-03-19 11:50:00,66.8,39.0,30.12,SE,139,2.3,2.3,36,0.00,SCT,,0.00,WeatherDisplay:10.37,2013-03-19 18:50:00,
2013-03-19 11:53:00,67.0,37.7,30.12,ESE,113,2.3,0.0,34,0.00,SCT,,0.00,WeatherDisplay:10.37,2013-03-19 18:53:00,
2013-03-19 11:55:00,67.1,37.8,30.12,South,170,2.3,0.0,34,0.00,SCT,,0.00,WeatherDisplay:10.37,2013-03-19 18:55:00,
2013-03-19 11:56:00,67.2,38.6,30.12,South,169,1.2,0.0,35,0.00,SCT,,0.00,WeatherDisplay:10.37,2013-03-19 18:56:00,
2013-03-19 11:58:00,67.3,38.0,30.12,ESE,115,2.3,2.3,34,0.00,SCT,,0.00,WeatherDisplay:10.37,2013-03-19 18:58:00,
2013-03-19 12:00:00,67.3,38.7,30.12,ESE,115,1.2,0.0,35,0.00,SCT,,0.00,WeatherDisplay:10.37,2013-03-19 19:00:00,
2013-03-19 12:01:00,67.5,38.9,30.12,ESE,116,0.0,0.1,35,0.00,SCT,,0.00,WeatherDisplay:10.37,2013-03-19 19:01:00,
2013-03-19 12:02:00,67.6,39.0,30.12,ESE,116,1.2,1.2,35,0.00,SCT,,0.00,WeatherDisplay:10.37,2013-03-19 19:02:00,
2013-03-19 12:04:00,67.7,37.5,30.12,WSW,244,2.0,2.0,33,0.00,SCT,,0.00,WeatherDisplay:10.37,2013-03-19 19:04:00,
2013-03-19 12:05:00,67.7,37.5,30.12,WSW,244,2.3,2.3,33,0.00,SCT,,0.00,WeatherDisplay:10.37,2013-03-19 19:05:00,
2013-03-19 12:06:00,67.8,38.4,30.11,WSW,244,1.2,0.0,34,0.00,SCT,,0.00,WeatherDisplay:10.37,2013-03-19 19:06:00,
2013-03-19 12:08:00,68.0,38.6,30.11,WSW,244,0.0,0.0,34,0.00,SCT,,0.00,WeatherDisplay:10.37,2013-03-19 19:08:00,
2013-03-19 12:10:00,68.1,38.7,30.11,WSW,244,0.0,0.0,34,0.00,SCT,,0.00,WeatherDisplay:10.37,2013-03-19 19:10:00,
2013-03-19 12:11:00,68.3,38.8,30.11,SE,127,2.3,2.3,34,0.00,SCT,,0.00,WeatherDisplay:10.37,2013-03-19 19:11:00,
2013-03-19 12:13:00,68.5,39.0,30.12,South,178,2.3,2.3,34,0.00,SCT,,0.00,WeatherDisplay:10.37,2013-03-19 19:13:00,
2013-03-19 12:15:00,68.8,39.3,30.12,SW,220,2.3,2.3,34,0.00,SCT,,0.00,WeatherDisplay:10.37,2013-03-19 19:15:00,
2013-03-19 12:18:00,69.2,38.9,30.12,SW,214,1.2,1.2,33,0.00,SCT,,0.00,WeatherDisplay:10.37,2013-03-19 19:18:00,
2013-03-19 12:20:00,69.5,40.6,30.12,SSE,150,4.0,4.0,35,0.00,SCT,,0.00,WeatherDisplay:10.37,2013-03-19 19:20:00,
2013-03-19 12:23:00,69.8,39.4,30.12,South,187,3.5,3.5,33,0.00,SCT,,0.00,WeatherDisplay:10.37,2013-03-19 19:23:00,
2013-03-19 12:26:00,70.1,40.4,30.12,South,186,1.2,1.2,34,0.00,SCT,,0.00,WeatherDisplay:10.37,2013-03-19 19:26:00,
2013-03-19 12:29:00,70.1,39.6,30.12,SSE,156,4.0,4.0,33,0.00,SCT,,0.00,WeatherDisplay:10.37,2013-03-19 19:29:00,
2013-03-19 12:30:00,70.2,39.7,30.12,SSW,209,4.6,4.6,33,0.00,SCT,,0.00,WeatherDisplay:10.37,2013-03-19 19:30:00,
2013-03-19 12:31:00,70.1,39.6,30.12,ENE,74,3.5,3.5,33,0.00,SCT,,0.00,WeatherDisplay:10.37,2013-03-19 19:31:00,
2013-03-19 12:32:00,70.1,39.6,30.12,South,170,6.9,6.9,33,0.00,SCT,,0.00,WeatherDisplay:10.37,2013-03-19 19:32:00,
2013-03-19 12:35:00,70.1,39.6,30.12,South,186,6.9,6.9,33,0.00,SCT,,0.00,WeatherDisplay:10.37,2013-03-19 19:35:00,
2013-03-19 12:37:00,70.1,39.6,30.12,ESE,121,2.3,2.3,33,0.00,SCT,,0.00,WeatherDisplay:10.37,2013-03-19 19:37:00,
2013-03-19 12:40:00,70.1,40.4,30.12,SSE,154,1.0,5.0,34,0.00,SCT,,0.00,WeatherDisplay:10.37,2013-03-19 19:40:00,
2013-03-19 12:42:00,70.2,39.7,30.11,SSE,151,2.3,2.3,33,0.00,SCT,,0.00,WeatherDisplay:10.37,2013-03-19 19:42:00,
2013-03-19 12:43:00,70.2,40.5,30.11,ESE,120,2.0,2.0,34,0.00,SCT,,0.00,WeatherDisplay:10.37,2013-03-19 19:43:00,
2013-03-19 12:44:00,70.2,39.7,30.12,SE,125,4.6,4.6,33,0.00,SCT,,0.00,WeatherDisplay:10.37,2013-03-19 19:44:00,
2013-03-19 12:45:00,70.2,39.7,30.12,SE,144,2.0,6.0,33,0.00,SCT,,0.00,WeatherDisplay:10.37,2013-03-19 19:45:00,
2013-03-19 12:47:00,70.2,39.7,30.11,SSE,167,3.5,3.5,33,0.00,SCT,,0.00,WeatherDisplay:10.37,2013-03-19 19:47:00,
2013-03-19 12:50:00,70.2,39.7,30.11,South,187,2.3,2.3,33,0.00,SCT,,0.00,WeatherDisplay:10.37,2013-03-19 19:50:00,
2013-03-19 12:54:00,70.3,40.6,30.12,SE,135,5.8,5.8,34,0.00,SCT,,0.00,WeatherDisplay:10.37,2013-03-19 19:54:00,
2013-03-19 12:55:00,70.3,40.6,30.12,South,169,1.0,8.0,34,0.00,SCT,,0.00,WeatherDisplay:10.37,2013-03-19 19:55:00,
2013-03-19 13:00:00,70.5,40.8,30.11,SSE,159,1.0,6.0,34,0.00,SCT,,0.00,WeatherDisplay:10.37,2013-03-19 20:00:00,
2013-03-19 13:01:00,70.6,40.9,30.11,ESE,121,3.5,3.5,34,0.00,SCT,,0.00,WeatherDisplay:10.37,2013-03-19 20:01:00,
2013-03-19 13:05:00,70.7,40.9,30.12,SSW,196,4.6,4.6,34,0.00,SCT,,0.00,WeatherDisplay:10.37,2013-03-19 20:05:00,
2013-03-19 13:06:00,70.7,40.9,30.11,SE,139,4.6,4.6,34,0.00,SCT,,0.00,WeatherDisplay:10.37,2013-03-19 20:06:00,
2013-03-19 13:10:00,70.9,41.1,30.11,SE,139,1.0,0.0,34,0.00,SCT,,0.00,WeatherDisplay:10.37,2013-03-19 20:10:00,
2013-03-19 13:11:00,70.9,41.1,30.12,SE,131,5.0,5.0,34,0.00,SCT,,0.00,WeatherDisplay:10.37,2013-03-19 20:11:00,
2013-03-19 13:15:00,71.2,41.4,30.12,ESE,117,4.6,4.6,34,0.00,SCT,,0.00,WeatherDisplay:10.37,2013-03-19 20:15:00,
2013-03-19 13:16:00,71.3,41.5,30.12,SE,127,5.8,5.8,34,0.00,SCT,,0.00,WeatherDisplay:10.37,2013-03-19 20:16:00,
2013-03-19 13:17:00,71.3,41.5,30.12,ESE,122,5.8,5.8,34,0.00,SCT,,0.00,WeatherDisplay:10.37,2013-03-19 20:17:00,
2013-03-19 13:20:00,71.5,41.6,30.12,South,180,2.3,2.3,34,0.00,SCT,,0.00,WeatherDisplay:10.37,2013-03-19 20:20:00,
2013-03-19 13:22:00,71.7,41.8,30.11,South,178,4.0,4.0,34,0.00,SCT,,0.00,WeatherDisplay:10.37,2013-03-19 20:22:00,
2013-03-19 13:25:00,71.8,41.9,30.11,SE,126,3.5,3.5,34,0.00,SCT,,0.00,WeatherDisplay:10.37,2013-03-19 20:25:00,
2013-03-19 13:27:00,72.0,41.3,30.11,SE,140,1.2,1.2,33,0.00,SCT,,0.00,WeatherDisplay:10.37,2013-03-19 20:27:00,
2013-03-19 13:30:00,72.1,42.2,30.11,South,169,3.5,3.5,34,0.00,SCT,,0.00,WeatherDisplay:10.37,2013-03-19 20:30:00,
2013-03-19 13:31:00,72.2,41.5,30.11,South,181,1.2,1.2,33,0.00,SCT,,0.00,WeatherDisplay:10.37,2013-03-19 20:31:00,
2013-03-19 13:32:00,72.1,41.4,30.11,SE,127,1.2,1.2,33,0.00,SCT,,0.00,WeatherDisplay:10.37,2013-03-19 20:32:00,
2013-03-19 13:33:00,72.1,41.4,30.11,SSW,213,3.5,3.5,33,0.00,SCT,,0.00,WeatherDisplay:10.37,2013-03-19 20:33:00,
2013-03-19 13:35:00,72.2,41.5,30.10,SSE,168,3.0,3.0,33,0.00,SCT,,0.00,WeatherDisplay:10.37,2013-03-19 20:35:00,
2013-03-19 13:37:00,72.3,41.6,30.11,South,183,2.3,2.3,33,0.00,SCT,,0.00,WeatherDisplay:10.37,2013-03-19 20:37:00,
2013-03-19 13:38:00,72.3,41.6,30.11,South,183,2.3,2.3,33,0.00,SCT,,0.00,WeatherDisplay:10.37,2013-03-19 20:38:00,
2013-03-19 13:40:00,72.4,41.7,30.10,SSE,159,2.3,2.3,33,0.00,SCT,,0.00,WeatherDisplay:10.37,2013-03-19 20:40:00,
2013-03-19 13:42:00,72.5,41.7,30.10,SE,142,4.0,4.0,33,0.00,SCT,,0.00,WeatherDisplay:10.37,2013-03-19 20:42:00,
2013-03-19 13:43:00,72.5,41.7,30.10,SE,126,3.5,3.5,33,0.00,SCT,,0.00,WeatherDisplay:10.37,2013-03-19 20:43:00,
2013-03-19 13:45:00,72.6,41.8,30.10,ESE,114,2.3,2.3,33,0.00,SCT,,0.00,WeatherDisplay:10.37,2013-03-19 20:45:00,
2013-03-19 13:47:00,72.7,41.9,30.10,South,170,3.0,3.0,33,0.00,SCT,,0.00,WeatherDisplay:10.37,2013-03-19 20:47:00,
2013-03-19 13:48:00,72.7,41.9,30.10,South,178,3.5,3.5,33,0.00,SCT,,0.00,WeatherDisplay:10.37,2013-03-19 20:48:00,
2013-03-19 13:52:00,73.0,42.2,30.10,SW,222,3.5,3.5,33,0.00,SCT,,0.00,WeatherDisplay:10.37,2013-03-19 20:52:00,
2013-03-19 13:53:00,73.1,42.3,30.10,SSE,148,2.3,2.3,33,0.00,SCT,,0.00,WeatherDisplay:10.37,2013-03-19 20:53:00,
2013-03-19 13:54:00,73.1,42.3,30.10,SSE,161,3.0,3.0,33,0.00,SCT,,0.00,WeatherDisplay:10.37,2013-03-19 20:54:00,
2013-03-19 13:57:00,73.3,42.4,30.10,NE,45,5.8,5.8,33,0.00,SCT,,0.00,WeatherDisplay:10.37,2013-03-19 20:57:00,
2013-03-19 13:58:00,73.3,42.4,30.10,SE,137,4.0,4.0,33,0.00,SCT,,0.00,WeatherDisplay:10.37,2013-03-19 20:58:00,
2013-03-19 13:59:00,73.3,42.4,30.10,ESE,110,3.5,3.5,33,0.00,SCT,,0.00,WeatherDisplay:10.37,2013-03-19 20:59:00,
2013-03-19 14:01:00,73.4,42.5,30.10,ESE,111,3.5,0.0,33,0.00,SCT,,0.00,WeatherDisplay:10.37,2013-03-19 21:01:00,
2013-03-19 14:03:00,73.4,42.5,30.10,ESE,111,0.0,0.1,33,0.00,SCT,,0.00,WeatherDisplay:10.37,2013-03-19 21:03:00,
2013-03-19 14:04:00,73.4,42.5,30.10,SE,126,1.2,1.2,33,0.00,SCT,,0.00,WeatherDisplay:10.37,2013-03-19 21:04:00,
2013-03-19 14:06:00,73.4,42.5,30.10,SE,125,7.0,7.0,33,0.00,SCT,,0.00,WeatherDisplay:10.37,2013-03-19 21:06:00,
2013-03-19 14:08:00,73.3,42.4,30.10,South,173,3.5,3.5,33,0.00,SCT,,0.00,WeatherDisplay:10.37,2013-03-19 21:08:00,
2013-03-19 14:09:00,73.3,42.4,30.10,ESE,109,2.0,2.0,33,0.00,SCT,,0.00,WeatherDisplay:10.37,2013-03-19 21:09:00,
2013-03-19 14:10:00,73.3,42.4,30.10,SE,136,0.0,7.0,33,0.00,SCT,,0.00,WeatherDisplay:10.37,2013-03-19 21:10:00,
2013-03-19 14:12:00,73.2,41.6,30.10,ESE,102,5.8,5.8,32,0.00,SCT,,0.00,WeatherDisplay:10.37,2013-03-19 21:12:00,
2013-03-19 14:14:00,73.1,42.3,30.10,SE,126,2.3,2.3,33,0.00,SCT,,0.00,WeatherDisplay:10.37,2013-03-19 21:14:00,
2013-03-19 14:15:00,73.1,42.3,30.10,SE,127,1.0,6.0,33,0.00,SCT,,0.00,WeatherDisplay:10.37,2013-03-19 21:15:00,
2013-03-19 14:17:00,73.1,42.3,30.10,SE,126,1.2,1.2,33,0.00,SCT,,0.00,WeatherDisplay:10.37,2013-03-19 21:17:00,
2013-03-19 14:18:00,73.0,41.4,30.10,ESE,114,2.3,2.3,32,0.00,SCT,,0.00,WeatherDisplay:10.37,2013-03-19 21:18:00,
2013-03-19 14:19:00,72.8,41.2,30.10,NE,54,2.3,2.3,32,0.00,SCT,,0.00,WeatherDisplay:10.37,2013-03-19 21:19:00,
2013-03-19 14:20:00,72.8,41.2,30.09,SSE,161,2.3,2.3,32,0.00,SCT,,0.00,WeatherDisplay:10.37,2013-03-19 21:20:00,
2013-03-19 14:23:00,72.7,41.9,30.10,SSW,198,3.5,3.5,33,0.00,SCT,,0.00,WeatherDisplay:10.37,2013-03-19 21:23:00,
2013-03-19 14:24:00,72.7,41.9,30.10,SSW,208,2.0,2.0,33,0.00,SCT,,0.00,WeatherDisplay:10.37,2013-03-19 21:24:00,
2013-03-19 14:25:00,72.7,41.9,30.10,South,169,1.0,6.0,33,0.00,SCT,,0.00,WeatherDisplay:10.37,2013-03-19 21:25:00,
2013-03-19 14:29:00,72.8,42.0,30.10,SE,129,6.9,6.9,33,0.00,SCT,,0.00,WeatherDisplay:10.37,2013-03-19 21:29:00,
2013-03-19 14:30:00,72.8,42.0,30.10,East,98,4.6,4.6,33,0.00,SCT,,0.00,WeatherDisplay:10.37,2013-03-19 21:30:00,
2013-03-19 14:31:00,72.9,42.1,30.10,ENE,76,5.0,5.0,33,0.00,SCT,,0.00,WeatherDisplay:10.37,2013-03-19 21:31:00,
2013-03-19 14:34:00,72.9,42.1,30.10,SSE,168,3.5,3.5,33,0.00,SCT,,0.00,WeatherDisplay:10.37,2013-03-19 21:34:00,
2013-03-19 14:35:00,72.9,42.1,30.10,SE,125,3.5,3.5,33,0.00,SCT,,0.00,WeatherDisplay:10.37,2013-03-19 21:35:00,
2013-03-19 14:38:00,72.9,42.1,30.10,ESE,114,6.9,6.9,33,0.00,SCT,,0.00,WeatherDisplay:10.37,2013-03-19 21:38:00,
2013-03-19 14:39:00,72.9,42.1,30.10,SE,136,3.5,3.5,33,0.00,SCT,,0.00,WeatherDisplay:10.37,2013-03-19 21:39:00,
2013-03-19 14:41:00,72.8,42.0,30.10,SSE,147,2.3,2.3,33,0.00,SCT,,0.00,WeatherDisplay:10.37,2013-03-19 21:41:00,
2013-03-19 14:43:00,72.7,41.9,30.10,SSE,152,3.5,3.5,33,0.00,SCT,,0.00,WeatherDisplay:10.37,2013-03-19 21:43:00,
2013-03-19 14:44:00,72.5,41.7,30.11,SSE,163,3.5,3.5,33,0.00,SCT,,0.00,WeatherDisplay:10.37,2013-03-19 21:44:00,
2013-03-19 14:46:00,72.3,42.3,30.10,SE,141,3.5,3.5,34,0.00,SCT,,0.00,WeatherDisplay:10.37,2013-03-19 21:46:00,
2013-03-19 14:47:00,72.3,43.1,30.10,SSE,149,3.5,3.5,35,0.00,SCT,,0.00,WeatherDisplay:10.37,2013-03-19 21:47:00,
2013-03-19 14:48:00,72.3,43.1,30.10,South,181,3.5,3.5,35,0.00,SCT,,0.00,WeatherDisplay:10.37,2013-03-19 21:48:00,
2013-03-19 14:52:00,72.1,42.9,30.10,SE,128,4.6,4.6,35,0.00,SCT,,0.00,WeatherDisplay:10.37,2013-03-19 21:52:00,
2013-03-19 14:53:00,72.1,43.7,30.10,SE,132,6.0,6.0,36,0.00,SCT,,0.00,WeatherDisplay:10.37,2013-03-19 21:53:00,
2013-03-19 14:57:00,71.8,43.4,30.10,ESE,123,5.8,5.8,36,0.00,SCT,,0.00,WeatherDisplay:10.37,2013-03-19 21:57:00,
2013-03-19 14:58:00,71.8,43.4,30.10,ESE,123,8.0,8.0,36,0.00,SCT,,0.00,WeatherDisplay:10.37,2013-03-19 21:58:00,
2013-03-19 14:59:00,71.7,42.6,30.10,SSE,147,8.1,8.1,35,0.00,SCT,,0.00,WeatherDisplay:10.37,2013-03-19 21:59:00,
2013-03-19 15:02:00,71.6,42.5,30.10,ESE,113,8.1,8.1,35,0.00,SCT,,0.00,WeatherDisplay:10.37,2013-03-19 22:02:00,
2013-03-19 15:03:00,71.6,42.5,30.10,South,187,6.9,6.9,35,0.00,SCT,,0.00,WeatherDisplay:10.37,2013-03-19 22:03:00,
2013-03-19 15:04:00,71.4,41.6,30.10,SSE,147,5.8,5.8,34,0.00,SCT,,0.00,WeatherDisplay:10.37,2013-03-19 22:04:00,
2013-03-19 15:05:00,71.4,41.6,30.10,South,191,5.8,5.8,34,0.00,SCT,,0.00,WeatherDisplay:10.37,2013-03-19 22:05:00,
2013-03-19 15:08:00,71.1,42.0,30.10,SE,132,6.0,6.0,35,0.00,SCT,,0.00,WeatherDisplay:10.37,2013-03-19 22:08:00,
2013-03-19 15:09:00,71.1,41.3,30.10,SE,128,6.9,6.9,34,0.00,SCT,,0.00,WeatherDisplay:10.37,2013-03-19 22:09:00,
2013-03-19 15:10:00,71.0,41.2,30.09,SE,131,5.8,5.8,34,0.00,SCT,,0.00,WeatherDisplay:10.37,2013-03-19 22:10:00,
2013-03-19 15:12:00,70.9,41.1,30.10,South,169,10.4,10.4,34,0.00,SCT,,0.00,WeatherDisplay:10.37,2013-03-19 22:12:00,
2013-03-19 15:13:00,70.8,41.0,30.09,South,169,9.2,9.2,34,0.00,SCT,,0.00,WeatherDisplay:10.37,2013-03-19 22:13:00,
2013-03-19 15:14:00,70.7,40.9,30.09,SSE,168,5.8,5.8,34,0.00,SCT,,0.00,WeatherDisplay:10.37,2013-03-19 22:14:00,
2013-03-19 15:15:00,70.7,40.9,30.09,South,175,4.6,4.6,34,0.00,SCT,,0.00,WeatherDisplay:10.37,2013-03-19 22:15:00,
2013-03-19 15:19:00,70.4,40.7,30.10,ESE,114,10.0,10.0,34,0.00,SCT,,0.00,WeatherDisplay:10.37,2013-03-19 22:19:00,
2013-03-19 15:20:00,70.3,40.6,30.09,SE,138,10.4,10.4,34,0.00,SCT,,0.00,WeatherDisplay:10.37,2013-03-19 22:20:00,
2013-03-19 15:24:00,70.1,40.4,30.10,ESE,122,9.2,9.2,34,0.00,SCT,,0.00,WeatherDisplay:10.37,2013-03-19 22:24:00,
2013-03-19 15:25:00,70.1,40.4,30.10,SE,146,2.0,9.0,34,0.00,SCT,,0.00,WeatherDisplay:10.37,2013-03-19 22:25:00,
2013-03-19 15:26:00,70.0,40.3,30.10,East,101,3.5,3.5,34,0.00,SCT,,0.00,WeatherDisplay:10.37,2013-03-19 22:26:00,
2013-03-19 15:29:00,69.8,40.9,30.10,SSE,163,9.2,9.2,35,0.00,SCT,,0.00,WeatherDisplay:10.37,2013-03-19 22:29:00,
2013-03-19 15:30:00,69.8,40.2,30.10,South,178,4.6,4.6,34,0.00,SCT,,0.00,WeatherDisplay:10.37,2013-03-19 22:30:00,
2013-03-19 15:31:00,69.8,40.9,30.10,SSE,148,4.6,4.6,35,0.00,SCT,,0.00,WeatherDisplay:10.37,2013-03-19 22:31:00,
2013-03-19 15:35:00,69.6,40.8,30.10,SSE,151,2.0,8.0,35,0.00,SCT,,0.00,WeatherDisplay:10.37,2013-03-19 22:35:00,
2013-03-19 15:36:00,69.6,40.0,30.10,SSE,160,6.9,6.9,34,0.00,SCT,,0.00,WeatherDisplay:10.37,2013-03-19 22:36:00,
2013-03-19 15:37:00,69.6,40.7,30.10,South,174,8.1,8.1,35,0.00,SCT,,0.00,WeatherDisplay:10.37,2013-03-19 22:37:00,
2013-03-19 15:40:00,69.5,40.6,30.10,SE,132,6.9,6.9,35,0.00,SCT,,0.00,WeatherDisplay:10.37,2013-03-19 22:40:00,
2013-03-19 15:41:00,69.4,40.5,30.10,SE,128,6.9,6.9,35,0.00,SCT,,0.00,WeatherDisplay:10.37,2013-03-19 22:41:00,
2013-03-19 15:43:00,69.4,40.5,30.10,SW,220,3.5,3.5,35,0.00,SCT,,0.00,WeatherDisplay:10.37,2013-03-19 22:43:00,
2013-03-19 15:45:00,69.4,40.5,30.10,SE,131,2.3,2.3,35,0.00,SCT,,0.00,WeatherDisplay:10.37,2013-03-19 22:45:00,
2013-03-19 15:46:00,69.4,40.5,30.09,SE,125,2.3,2.3,35,0.00,SCT,,0.00,WeatherDisplay:10.37,2013-03-19 22:46:00,
2013-03-19 15:47:00,69.4,41.3,30.10,ESE,122,3.5,3.5,36,0.00,SCT,,0.00,WeatherDisplay:10.37,2013-03-19 22:47:00,
2013-03-19 15:48:00,69.4,41.3,30.10,South,176,6.9,6.9,36,0.00,SCT,,0.00,WeatherDisplay:10.37,2013-03-19 22:48:00,
2013-03-19 15:51:00,69.4,41.3,30.10,SE,143,6.0,6.0,36,0.00,SCT,,0.00,WeatherDisplay:10.37,2013-03-19 22:51:00,
2013-03-19 15:52:00,69.4,41.3,30.10,SE,137,5.8,5.8,36,0.00,SCT,,0.00,WeatherDisplay:10.37,2013-03-19 22:52:00,
2013-03-19 15:54:00,69.5,41.4,30.10,SE,144,2.3,2.3,36,0.00,SCT,,0.00,WeatherDisplay:10.37,2013-03-19 22:54:00,
2013-03-19 15:57:00,69.5,41.4,30.10,South,177,2.0,2.0,36,0.00,SCT,,0.00,WeatherDisplay:10.37,2013-03-19 22:57:00,
2013-03-19 15:59:00,69.5,41.4,30.10,SW,234,3.5,3.5,36,0.00,SCT,,0.00,WeatherDisplay:10.37,2013-03-19 22:59:00,
2013-03-19 16:02:00,69.4,42.0,30.10,ESE,105,3.5,3.5,37,0.00,SCT,,0.00,WeatherDisplay:10.37,2013-03-19 23:02:00,
2013-03-19 16:04:00,69.3,41.9,30.10,SE,141,3.5,3.5,37,0.00,SCT,,0.00,WeatherDisplay:10.37,2013-03-19 23:04:00,
2013-03-19 16:07:00,69.1,41.7,30.10,SSE,166,4.6,4.6,37,0.00,SCT,,0.00,WeatherDisplay:10.37,2013-03-19 23:07:00,
2013-03-19 16:08:00,69.1,41.7,30.10,SE,135,3.5,3.5,37,0.00,SCT,,0.00,WeatherDisplay:10.37,2013-03-19 23:08:00,
2013-03-19 16:09:00,69.1,41.7,30.10,SSE,148,10.4,10.4,37,0.00,SCT,,0.00,WeatherDisplay:10.37,2013-03-19 23:09:00,
2013-03-19 16:11:00,69.1,41.7,30.10,SSE,149,8.1,8.1,37,0.00,SCT,,0.00,WeatherDisplay:10.37,2013-03-19 23:11:00,
2013-03-19 16:12:00,69.0,42.3,30.10,ESE,121,3.5,3.5,38,0.00,SCT,,0.00,WeatherDisplay:10.37,2013-03-19 23:12:00,
2013-03-19 16:13:00,69.0,42.3,30.11,SSE,168,6.0,6.0,38,0.00,SCT,,0.00,WeatherDisplay:10.37,2013-03-19 23:13:00,
2013-03-19 16:14:00,69.0,42.3,30.10,South,186,5.8,5.8,38,0.00,SCT,,0.00,WeatherDisplay:10.37,2013-03-19 23:14:00,
2013-03-19 16:17:00,68.9,42.2,30.11,South,181,5.8,5.8,38,0.00,SCT,,0.00,WeatherDisplay:10.37,2013-03-19 23:17:00,
2013-03-19 16:18:00,68.8,42.1,30.11,ESE,117,3.5,3.5,38,0.00,SCT,,0.00,WeatherDisplay:10.37,2013-03-19 23:18:00,
2013-03-19 16:19:00,68.8,42.1,30.11,SSE,160,3.5,3.5,38,0.00,SCT,,0.00,WeatherDisplay:10.37,2013-03-19 23:19:00,
2013-03-19 16:20:00,68.8,42.1,30.11,SE,130,5.0,5.0,38,0.00,SCT,,0.00,WeatherDisplay:10.37,2013-03-19 23:20:00,
2013-03-19 16:22:00,68.6,42.6,30.11,SE,130,3.5,3.5,39,0.00,SCT,,0.00,WeatherDisplay:10.37,2013-03-19 23:22:00,
2013-03-19 16:23:00,68.6,42.6,30.11,SE,127,3.5,3.5,39,0.00,SCT,,0.00,WeatherDisplay:10.37,2013-03-19 23:23:00,
2013-03-19 16:25:00,68.5,41.9,30.11,SE,140,5.8,5.8,38,0.00,SCT,,0.00,WeatherDisplay:10.37,2013-03-19 23:25:00,
2013-03-19 16:27:00,68.4,42.5,30.11,ESE,108,3.5,3.5,39,0.00,SCT,,0.00,WeatherDisplay:10.37,2013-03-19 23:27:00,
2013-03-19 16:29:00,68.3,42.4,30.11,SE,131,9.2,9.2,39,0.00,SCT,,0.00,WeatherDisplay:10.37,2013-03-19 23:29:00,
2013-03-19 16:30:00,68.2,41.6,30.11,SSE,168,5.8,5.8,38,0.00,SCT,,0.00,WeatherDisplay:10.37,2013-03-19 23:30:00,
2013-03-19 16:33:00,68.0,42.1,30.11,South,189,3.5,3.5,39,0.00,SCT,,0.00,WeatherDisplay:10.37,2013-03-19 23:33:00,
2013-03-19 16:34:00,67.9,42.0,30.11,SE,143,4.6,4.6,39,0.00,SCT,,0.00,WeatherDisplay:10.37,2013-03-19 23:34:00,
2013-03-19 16:36:00,67.9,42.7,30.11,SE,124,3.5,3.5,40,0.00,SCT,,0.00,WeatherDisplay:10.37,2013-03-19 23:36:00,
2013-03-19 16:37:00,67.8,42.6,30.11,SE,145,3.5,3.5,40,0.00,SCT,,0.00,WeatherDisplay:10.37,2013-03-19 23:37:00,
2013-03-19 16:39:00,67.7,42.5,30.11,South,180,3.5,3.5,40,0.00,SCT,,0.00,WeatherDisplay:10.37,2013-03-19 23:39:00,
2013-03-19 16:42:00,67.6,42.4,30.11,SE,137,2.3,2.3,40,0.00,SCT,,0.00,WeatherDisplay:10.37,2013-03-19 23:42:00,
2013-03-19 16:43:00,67.6,42.4,30.11,SE,136,2.3,2.3,40,0.00,SCT,,0.00,WeatherDisplay:10.37,2013-03-19 23:43:00,
2013-03-19 16:44:00,67.5,42.3,30.12,ESE,123,2.3,2.3,40,0.00,SCT,,0.00,WeatherDisplay:10.37,2013-03-19 23:44:00,
2013-03-19 16:45:00,67.6,42.4,30.12,SE,140,0.0,3.0,40,0.00,SCT,,0.00,WeatherDisplay:10.37,2013-03-19 23:45:00,
2013-03-19 16:47:00,67.5,42.3,30.12,SE,134,3.5,3.5,40,0.00,SCT,,0.00,WeatherDisplay:10.37,2013-03-19 23:47:00,
2013-03-19 16:48:00,67.5,42.3,30.12,SE,142,5.0,5.0,40,0.00,SCT,,0.00,WeatherDisplay:10.37,2013-03-19 23:48:00,
2013-03-19 16:50:00,67.4,42.2,30.12,SSE,153,2.0,6.0,40,0.00,SCT,,0.00,WeatherDisplay:10.37,2013-03-19 23:50:00,
2013-03-19 16:52:00,67.3,42.8,30.12,South,191,3.5,3.5,41,0.00,SCT,,0.00,WeatherDisplay:10.37,2013-03-19 23:52:00,
2013-03-19 16:55:00,67.1,42.6,30.12,SE,142,2.0,10.0,41,0.00,SCT,,0.00,WeatherDisplay:10.37,2013-03-19 23:55:00,
2013-03-19 16:57:00,66.9,42.4,30.12,SE,139,5.8,5.8,41,0.00,SCT,,0.00,WeatherDisplay:10.37,2013-03-19 23:57:00,
2013-03-19 16:58:00,66.8,42.3,30.12,SE,129,5.0,5.0,41,0.00,SCT,,0.00,WeatherDisplay:10.37,2013-03-19 23:58:00,
2013-03-19 17:00:00,66.8,42.3,30.12,SE,127,3.5,3.5,41,0.00,SCT,,0.00,WeatherDisplay:10.37,2013-03-20 00:00:00,
2013-03-19 17:03:00,66.8,43.0,30.12,SSE,152,4.6,4.6,42,0.00,SCT,,0.00,WeatherDisplay:10.37,2013-03-20 00:03:00,
2013-03-19 17:07:00,66.7,42.9,30.12,SSW,195,3.5,3.5,42,0.00,SCT,,0.00,WeatherDisplay:10.37,2013-03-20 00:07:00,
2013-03-19 17:08:00,66.7,42.9,30.12,SSW,195,3.5,0.0,42,0.00,SCT,,0.00,WeatherDisplay:10.37,2013-03-20 00:08:00,
2013-03-19 17:12:00,66.7,43.5,30.12,South,176,2.3,2.3,43,0.00,SCT,,0.00,WeatherDisplay:10.37,2013-03-20 00:12:00,
2013-03-19 17:13:00,66.7,43.5,30.12,SSW,192,4.0,4.0,43,0.00,SCT,,0.00,WeatherDisplay:10.37,2013-03-20 00:13:00,
2013-03-19 17:17:00,66.5,43.3,30.12,SSE,151,3.0,3.0,43,0.00,SCT,,0.00,WeatherDisplay:10.37,2013-03-20 00:17:00,
2013-03-19 17:18:00,66.5,43.3,30.13,SE,137,3.0,3.0,43,0.00,SCT,,0.00,WeatherDisplay:10.37,2013-03-20 00:18:00,
2013-03-19 17:19:00,66.4,42.6,30.13,South,182,5.8,5.8,42,0.00,SCT,,0.00,WeatherDisplay:10.37,2013-03-20 00:19:00,
2013-03-19 17:23:00,66.3,42.5,30.13,SE,132,3.5,3.5,42,0.00,SCT,,0.00,WeatherDisplay:10.37,2013-03-20 00:23:00,
2013-03-19 17:25:00,66.2,42.4,30.13,SE,137,1.0,7.0,42,0.00,SCT,,0.00,WeatherDisplay:10.37,2013-03-20 00:25:00,
2013-03-19 17:28:00,66.0,41.0,30.13,SE,137,8.1,8.1,40,0.00,SCT,,0.00,WeatherDisplay:10.37,2013-03-20 00:28:00,
2013-03-19 17:29:00,65.8,40.8,30.13,ESE,115,6.9,6.9,40,0.00,SCT,,0.00,WeatherDisplay:10.37,2013-03-20 00:29:00,
2013-03-19 17:30:00,65.8,40.8,30.13,South,187,4.6,4.6,40,0.00,SCT,,0.00,WeatherDisplay:10.37,2013-03-20 00:30:00,
2013-03-19 17:35:00,65.5,40.5,30.14,SSE,167,3.5,3.5,40,0.00,SCT,,0.00,WeatherDisplay:10.37,2013-03-20 00:35:00,
2013-03-19 17:36:00,65.5,40.5,30.13,SE,137,3.5,3.5,40,0.00,SCT,,0.00,WeatherDisplay:10.37,2013-03-20 00:36:00,
2013-03-19 17:40:00,65.3,41.0,30.13,SE,144,8.1,8.1,41,0.00,SCT,,0.00,WeatherDisplay:10.37,2013-03-20 00:40:00,
2013-03-19 17:41:00,65.2,40.9,30.14,SE,137,8.0,8.0,41,0.00,SCT,,0.00,WeatherDisplay:10.37,2013-03-20 00:41:00,
2013-03-19 17:45:00,64.9,40.0,30.14,SSW,194,5.8,5.8,40,0.00,SCT,,0.00,WeatherDisplay:10.37,2013-03-20 00:45:00,
2013-03-19 17:46:00,64.7,39.8,30.14,SE,137,6.0,6.0,40,0.00,SCT,,0.00,WeatherDisplay:10.37,2013-03-20 00:46:00,
2013-03-19 17:48:00,64.6,39.7,30.14,SE,135,10.4,10.4,40,0.00,SCT,,0.00,WeatherDisplay:10.37,2013-03-20 00:48:00,
2013-03-19 17:50:00,64.6,39.7,30.14,SSE,151,2.0,10.0,40,0.00,SCT,,0.00,WeatherDisplay:10.37,2013-03-20 00:50:00,
2013-03-19 17:52:00,64.5,39.6,30.14,SE,139,8.1,8.1,40,0.00,SCT,,0.00,WeatherDisplay:10.37,2013-03-20 00:52:00,
2013-03-19 17:53:00,64.4,40.2,30.14,ESE,118,3.5,3.5,41,0.00,SCT,,0.00,WeatherDisplay:10.37,2013-03-20 00:53:00,
2013-03-19 17:54:00,64.4,40.2,30.14,South,184,3.5,3.5,41,0.00,SCT,,0.00,WeatherDisplay:10.37,2013-03-20 00:54:00,
2013-03-19 17:55:00,64.4,40.2,30.14,SE,130,5.8,5.8,41,0.00,SCT,,0.00,WeatherDisplay:10.37,2013-03-20 00:55:00,
2013-03-19 17:57:00,64.3,41.3,30.14,SE,129,3.5,3.5,43,0.00,SCT,,0.00,WeatherDisplay:10.37,2013-03-20 00:57:00,
2013-03-19 17:58:00,64.2,41.8,30.14,WSW,248,3.5,3.5,44,0.00,SCT,,0.00,WeatherDisplay:10.37,2013-03-20 00:58:00,
2013-03-19 17:59:00,64.1,42.3,30.14,SE,127,5.8,5.8,45,0.00,SCT,,0.00,WeatherDisplay:10.37,2013-03-20 00:59:00,
2013-03-19 18:00:00,64.2,43.0,30.13,SE,127,5.8,5.8,46,0.00,SCT,,0.00,WeatherDisplay:10.37,2013-03-20 01:00:00,
2013-03-19 18:03:00,64.0,43.4,30.14,SE,137,5.8,5.8,47,0.00,SCT,,0.00,WeatherDisplay:10.37,2013-03-20 01:03:00,
2013-03-19 18:04:00,64.0,43.4,30.14,SE,126,6.0,6.0,47,0.00,SCT,,0.00,WeatherDisplay:10.37,2013-03-20 01:04:00,
2013-03-19 18:05:00,63.9,43.3,30.13,ESE,116,6.9,6.9,47,0.00,SCT,,0.00,WeatherDisplay:10.37,2013-03-20 01:05:00,
2013-03-19 18:08:00,63.6,42.4,30.13,SE,125,3.0,3.0,46,0.00,SCT,,0.00,WeatherDisplay:10.37,2013-03-20 01:08:00,
2013-03-19 18:09:00,63.6,42.4,30.13,SSE,156,5.0,5.0,46,0.00,SCT,,0.00,WeatherDisplay:10.37,2013-03-20 01:09:00,
2013-03-19 18:10:00,63.5,41.8,30.13,ESE,122,4.6,4.6,45,0.00,SCT,,0.00,WeatherDisplay:10.37,2013-03-20 01:10:00,
2013-03-19 18:14:00,63.3,41.6,30.13,SE,130,6.9,6.9,45,0.00,SCT,,0.00,WeatherDisplay:10.37,2013-03-20 01:14:00,
2013-03-19 18:15:00,63.3,41.6,30.13,SSE,152,4.6,4.6,45,0.00,SCT,,0.00,WeatherDisplay:10.37,2013-03-20 01:15:00,
2013-03-19 18:16:00,63.2,41.5,30.13,SSE,154,4.6,4.6,45,0.00,SCT,,0.00,WeatherDisplay:10.37,2013-03-20 01:16:00,
2013-03-19 18:19:00,63.1,40.8,30.13,ESE,118,4.6,4.6,44,0.00,SCT,,0.00,WeatherDisplay:10.37,2013-03-20 01:19:00,
2013-03-19 18:20:00,63.0,40.7,30.13,East,80,3.5,3.5,44,0.00,SCT,,0.00,WeatherDisplay:10.37,2013-03-20 01:20:00,
2013-03-19 18:22:00,63.0,40.7,30.13,SE,133,5.0,5.0,44,0.00,SCT,,0.00,WeatherDisplay:10.37,2013-03-20 01:22:00,
2013-03-19 18:24:00,62.9,40.0,30.14,SE,138,8.1,8.1,43,0.00,SCT,,0.00,WeatherDisplay:10.37,2013-03-20 01:24:00,
2013-03-19 18:26:00,62.7,39.9,30.14,SE,124,4.6,4.6,43,0.00,SCT,,0.00,WeatherDisplay:10.37,2013-03-20 01:26:00,
2013-03-19 18:27:00,62.6,39.8,30.13,SSE,148,4.6,4.6,43,0.00,SCT,,0.00,WeatherDisplay:10.37,2013-03-20 01:27:00,
2013-03-19 18:29:00,62.5,39.1,30.14,SE,131,3.5,3.5,42,0.00,SCT,,0.00,WeatherDisplay:10.37,2013-03-20 01:29:00,
2013-03-19 18:30:00,62.5,39.1,30.14,South,178,10.4,10.4,42,0.00,SCT,,0.00,WeatherDisplay:10.37,2013-03-20 01:30:00,
2013-03-19 18:31:00,62.5,39.1,30.14,South,187,10.4,10.4,42,0.00,SCT,,0.00,WeatherDisplay:10.37,2013-03-20 01:31:00,
2013-03-19 18:34:00,62.2,38.8,30.14,SSE,155,4.6,4.6,42,0.00,SCT,,0.00,WeatherDisplay:10.37,2013-03-20 01:34:00,
2013-03-19 18:35:00,62.1,38.7,30.14,SE,127,8.0,8.0,42,0.00,SCT,,0.00,WeatherDisplay:10.37,2013-03-20 01:35:00,
2013-03-19 18:36:00,62.0,38.6,30.14,SSE,150,8.1,8.1,42,0.00,SCT,,0.00,WeatherDisplay:10.37,2013-03-20 01:36:00,
2013-03-19 18:39:00,61.7,37.7,30.15,SSE,149,6.9,6.9,41,0.00,SCT,,0.00,WeatherDisplay:10.37,2013-03-20 01:39:00,
2013-03-19 18:40:00,61.7,38.4,30.15,SE,136,7.0,7.0,42,0.00,SCT,,0.00,WeatherDisplay:10.37,2013-03-20 01:40:00,
2013-03-19 18:43:00,61.4,38.7,30.15,SSE,149,6.0,6.0,43,0.00,SCT,,0.00,WeatherDisplay:10.37,2013-03-20 01:43:00,
2013-03-19 18:44:00,61.4,38.7,30.15,SSW,193,4.6,4.6,43,0.00,SCT,,0.00,WeatherDisplay:10.37,2013-03-20 01:44:00,
2013-03-19 18:45:00,61.3,38.6,30.15,SE,131,4.6,4.6,43,0.00,SCT,,0.00,WeatherDisplay:10.37,2013-03-20 01:45:00,
2013-03-19 18:48:00,61.2,39.1,30.15,SSE,156,5.8,5.8,44,0.00,SCT,,0.00,WeatherDisplay:10.37,2013-03-20 01:48:00,
2013-03-19 18:49:00,61.1,39.0,30.14,SE,142,5.8,5.8,44,0.00,SCT,,0.00,WeatherDisplay:10.37,2013-03-20 01:49:00,
2013-03-19 18:50:00,61.0,38.3,30.15,ESE,119,6.9,6.9,43,0.00,SCT,,0.00,WeatherDisplay:10.37,2013-03-20 01:50:00,
2013-03-19 18:53:00,60.8,38.1,30.15,SSE,150,6.9,6.9,43,0.00,SCT,,0.00,WeatherDisplay:10.37,2013-03-20 01:53:00,
2013-03-19 18:54:00,60.7,38.1,30.15,ESE,116,3.5,3.5,43,0.00,SCT,,0.00,WeatherDisplay:10.37,2013-03-20 01:54:00,
2013-03-19 18:55:00,60.6,38.6,30.15,SE,140,3.5,3.5,44,0.00,SCT,,0.00,WeatherDisplay:10.37,2013-03-20 01:55:00,
2013-03-19 18:56:00,60.5,39.0,30.15,SE,136,8.1,8.1,45,0.00,SCT,,0.00,WeatherDisplay:10.37,2013-03-20 01:56:00,
2013-03-19 18:59:00,60.2,38.2,30.15,SE,126,9.2,9.2,44,0.00,SCT,,0.00,WeatherDisplay:10.37,2013-03-20 01:59:00,
2013-03-19 19:00:00,60.0,38.6,30.15,SE,131,6.9,6.9,45,0.00,SCT,,0.00,WeatherDisplay:10.37,2013-03-20 02:00:00,
2013-03-19 19:02:00,59.9,39.1,30.15,SE,128,6.9,6.9,46,0.00,SCT,,0.00,WeatherDisplay:10.37,2013-03-20 02:02:00,
2013-03-19 19:04:00,59.7,39.4,30.15,SSE,148,4.6,4.6,47,0.00,SCT,,0.00,WeatherDisplay:10.37,2013-03-20 02:04:00,
2013-03-19 19:05:00,59.7,39.4,30.15,SE,138,3.5,3.5,47,0.00,SCT,,0.00,WeatherDisplay:10.37,2013-03-20 02:05:00,
2013-03-19 19:07:00,59.6,39.9,30.16,SE,137,3.5,3.5,48,0.00,SCT,,0.00,WeatherDisplay:10.37,2013-03-20 02:07:00,
2013-03-19 19:09:00,59.4,40.2,30.15,South,174,3.5,3.5,49,0.00,SCT,,0.00,WeatherDisplay:10.37,2013-03-20 02:09:00,
2013-03-19 19:11:00,59.4,40.2,30.16,South,175,5.0,5.0,49,0.00,SCT,,0.00,WeatherDisplay:10.37,2013-03-20 02:11:00,
2013-03-19 19:12:00,59.3,40.1,30.15,South,186,6.9,6.9,49,0.00,SCT,,0.00,WeatherDisplay:10.37,2013-03-20 02:12:00,
2013-03-19 19:17:00,58.8,40.7,30.16,SE,140,4.6,4.6,51,0.01,RA,,0.01,WeatherDisplay:10.37,2013-03-20 02:17:00,
2013-03-19 19:18:00,58.7,40.6,30.16,SSW,197,8.1,8.1,51,0.01,RA,,0.01,WeatherDisplay:10.37,2013-03-20 02:18:00,
2013-03-19 19:22:00,58.3,40.7,30.15,SSE,167,3.5,3.5,52,0.01,RA,,0.01,WeatherDisplay:10.37,2013-03-20 02:22:00,
2013-03-19 19:23:00,58.2,40.6,30.15,ESE,114,2.3,2.3,52,0.01,SCT,,0.01,WeatherDisplay:10.37,2013-03-20 02:23:00,
2013-03-19 19:28:00,57.9,41.3,30.15,SSE,149,2.3,2.3,54,0.02,RA,,0.02,WeatherDisplay:10.37,2013-03-20 02:28:00,
2013-03-19 19:29:00,57.8,41.3,30.15,South,174,2.3,2.3,54,0.02,RA,,0.02,WeatherDisplay:10.37,2013-03-20 02:29:00,
2013-03-19 19:33:00,57.4,41.4,30.15,SSE,163,2.3,2.3,55,0.02,RA,,0.02,WeatherDisplay:10.37,2013-03-20 02:33:00,
2013-03-19 19:34:00,57.4,41.8,30.14,South,179,2.0,2.0,56,0.02,RA,,0.02,WeatherDisplay:10.37,2013-03-20 02:34:00,
2013-03-19 19:35:00,57.3,41.7,30.15,SSW,202,3.5,3.5,56,0.02,RA,,0.02,WeatherDisplay:10.37,2013-03-20 02:35:00,
2013-03-19 19:38:00,57.1,42.5,30.15,South,186,0.0,0.1,58,0.02,SCT,,0.02,WeatherDisplay:10.37,2013-03-20 02:38:00,
2013-03-19 19:39:00,57.1,42.0,30.15,South,185,1.2,1.2,57,0.03,RA,,0.03,WeatherDisplay:10.37,2013-03-20 02:39:00,
2013-03-19 19:40:00,57.0,42.4,30.15,East,79,1.2,1.2,58,0.03,RA,,0.03,WeatherDisplay:10.37,2013-03-20 02:40:00,
2013-03-19 19:43:00,56.8,42.6,30.15,East,88,0.0,0.1,59,0.03,RA,,0.03,WeatherDisplay:10.37,2013-03-20 02:43:00,
2013-03-19 19:45:00,56.7,42.5,30.15,NE,35,1.2,0.0,59,0.03,RA,,0.03,WeatherDisplay:10.37,2013-03-20 02:45:00,
2013-03-19 19:46:00,56.7,42.5,30.15,NNE,31,1.2,0.0,59,0.03,RA,,0.03,WeatherDisplay:10.37,2013-03-20 02:46:00,
2013-03-19 19:48:00,56.5,41.9,30.15,North,1,0.0,0.0,58,0.03,RA,,0.04,WeatherDisplay:10.37,2013-03-20 02:48:00,
2013-03-19 19:51:00,56.3,42.6,30.15,North,2,0.0,0.0,60,0.04,RA,,0.04,WeatherDisplay:10.37,2013-03-20 02:51:00,
2013-03-19 19:52:00,56.3,43.0,30.15,North,2,0.0,0.0,61,0.04,RA,,0.04,WeatherDisplay:10.37,2013-03-20 02:52:00,
2013-03-19 19:54:00,56.2,43.3,30.15,North,2,0.0,0.0,62,0.04,RA,,0.04,WeatherDisplay:10.37,2013-03-20 02:54:00,
2013-03-19 19:56:00,56.2,41.2,30.15,South,183,1.2,1.2,57,0.04,RA,,0.04,WeatherDisplay:10.37,2013-03-20 02:56:00,
2013-03-19 19:57:00,56.1,41.5,30.15,South,183,1.2,1.2,58,0.04,RA,,0.04,WeatherDisplay:10.37,2013-03-20 02:57:00,
2013-03-19 19:59:00,56.1,42.4,30.15,South,174,1.2,1.2,60,0.04,RA,,0.04,WeatherDisplay:10.37,2013-03-20 02:59:00,
2013-03-19 20:02:00,56.1,42.8,30.15,South,174,0.0,0.0,61,0.04,SCT,,0.04,WeatherDisplay:10.37,2013-03-20 03:02:00,
2013-03-19 20:03:00,56.1,42.8,30.15,South,174,0.0,0.0,61,0.04,SCT,,0.04,WeatherDisplay:10.37,2013-03-20 03:03:00,
2013-03-19 20:04:00,56.1,43.3,30.15,South,174,1.2,1.2,62,0.04,SCT,,0.04,WeatherDisplay:10.37,2013-03-20 03:04:00,
2013-03-19 20:07:00,56.1,43.3,30.15,South,174,1.2,0.0,62,0.04,SCT,,0.04,WeatherDisplay:10.37,2013-03-20 03:07:00,
2013-03-19 20:08:00,56.1,43.3,30.15,South,174,1.2,0.0,62,0.04,SCT,,0.04,WeatherDisplay:10.37,2013-03-20 03:08:00,
2013-03-19 20:09:00,56.1,43.3,30.15,South,174,0.0,0.0,62,0.04,SCT,,0.04,WeatherDisplay:10.37,2013-03-20 03:09:00,
2013-03-19 20:11:00,56.1,42.8,30.15,South,174,1.2,0.0,61,0.04,SCT,,0.04,WeatherDisplay:10.37,2013-03-20 03:11:00,
2013-03-19 20:13:00,55.9,43.1,30.15,South,174,0.0,0.0,62,0.04,SCT,,0.05,WeatherDisplay:10.37,2013-03-20 03:13:00,
2013-03-19 20:15:00,55.8,43.0,30.15,South,174,0.0,0.0,62,0.04,RA,,0.05,WeatherDisplay:10.37,2013-03-20 03:15:00,
2013-03-19 20:17:00,55.7,43.3,30.15,South,174,0.0,0.0,63,0.04,RA,,0.05,WeatherDisplay:10.37,2013-03-20 03:17:00,
2013-03-19 20:18:00,55.6,43.2,30.15,South,174,0.0,0.0,63,0.04,RA,,0.05,WeatherDisplay:10.37,2013-03-20 03:18:00,
2013-03-19 20:19:00,55.6,42.8,30.15,South,174,0.0,0.0,62,0.04,RA,,0.05,WeatherDisplay:10.37,2013-03-20 03:19:00,
2013-03-19 20:20:00,55.5,42.7,30.15,South,174,0.0,0.0,62,0.04,RA,,0.05,WeatherDisplay:10.37,2013-03-20 03:20:00,
2013-03-19 20:22:00,55.4,42.6,30.15,South,174,0.0,0.0,62,0.04,RA,,0.05,WeatherDisplay:10.37,2013-03-20 03:22:00,
2013-03-19 20:23:00,55.3,42.9,30.15,South,174,0.0,0.0,63,0.04,SCT,,0.05,WeatherDisplay:10.37,2013-03-20 03:23:00,
2013-03-19 20:25:00,55.0,43.0,30.15,South,174,0.0,0.0,64,0.04,SCT,,0.05,WeatherDisplay:10.37,2013-03-20 03:25:00,
2013-03-19 20:26:00,54.9,42.5,30.15,South,174,0.0,0.0,63,0.04,SCT,,0.05,WeatherDisplay:10.37,2013-03-20 03:26:00,
2013-03-19 20:27:00,54.9,42.9,30.15,South,174,0.0,0.0,64,0.04,SCT,,0.05,WeatherDisplay:10.37,2013-03-20 03:27:00,
2013-03-19 20:29:00,55.0,43.4,30.15,South,174,0.0,0.0,65,0.03,SCT,,0.05,WeatherDisplay:10.37,2013-03-20 03:29:00,
2013-03-19 20:32:00,55.0,43.4,30.15,South,174,0.0,0.0,65,0.03,SCT,,0.05,WeatherDisplay:10.37,2013-03-20 03:32:00,
2013-03-19 20:35:00,55.1,43.9,30.15,South,174,0.0,0.0,66,0.03,SCT,,0.05,WeatherDisplay:10.37,2013-03-20 03:35:00,
2013-03-19 20:37:00,55.3,43.7,30.15,South,174,0.0,0.0,65,0.03,SCT,,0.05,WeatherDisplay:10.37,2013-03-20 03:37:00,
2013-03-19 20:38:00,55.3,44.1,30.15,South,174,0.0,0.0,66,0.03,SCT,,0.05,WeatherDisplay:10.37,2013-03-20 03:38:00,
2013-03-19 20:40:00,55.3,43.7,30.15,South,174,0.0,0.0,65,0.02,SCT,,0.05,WeatherDisplay:10.37,2013-03-20 03:40:00,
2013-03-19 20:42:00,55.4,43.8,30.15,South,174,0.0,0.0,65,0.02,SCT,,0.05,WeatherDisplay:10.37,2013-03-20 03:42:00,
2013-03-19 20:43:00,55.3,43.7,30.15,South,174,0.0,0.0,65,0.02,SCT,,0.05,WeatherDisplay:10.37,2013-03-20 03:43:00,
2013-03-19 20:46:00,55.1,43.5,30.14,South,174,0.0,0.0,65,0.03,RA,,0.06,WeatherDisplay:10.37,2013-03-20 03:46:00,
2013-03-19 20:48:00,54.9,43.4,30.14,South,174,0.0,0.0,65,0.03,RA,,0.06,WeatherDisplay:10.37,2013-03-20 03:48:00,
2013-03-19 20:49:00,54.8,42.4,30.14,South,174,0.0,0.0,63,0.03,RA,,0.06,WeatherDisplay:10.37,2013-03-20 03:49:00,
2013-03-19 20:52:00,54.5,43.0,30.14,South,174,0.0,0.0,65,0.02,RA,,0.06,WeatherDisplay:10.37,2013-03-20 03:52:00,
2013-03-19 20:55:00,54.5,43.0,30.14,South,174,0.0,0.0,65,0.00,SCT,,0.06,WeatherDisplay:10.37,2013-03-20 03:55:00,
2013-03-19 20:56:00,54.5,43.4,30.14,South,174,0.0,0.0,66,0.02,SCT,,0.06,WeatherDisplay:10.37,2013-03-20 03:56:00,
2013-03-19 20:57:00,54.5,43.0,30.14,South,174,0.0,0.0,65,0.02,SCT,,0.06,WeatherDisplay:10.37,2013-03-20 03:57:00,
2013-03-19 21:00:00,54.6,43.5,30.14,South,174,0.0,0.0,66,0.02,SCT,,0.06,WeatherDisplay:10.37,2013-03-20 04:00:00,
2013-03-19 21:05:00,54.7,44.0,30.14,South,174,0.0,0.0,67,0.02,SCT,,0.06,WeatherDisplay:10.37,2013-03-20 04:05:00,
2013-03-19 21:10:00,54.8,44.0,30.13,South,174,0.0,0.0,67,0.00,SCT,,0.06,WeatherDisplay:10.37,2013-03-20 04:10:00,
2013-03-19 21:11:00,54.8,44.0,30.13,South,174,0.0,0.0,67,0.02,SCT,,0.06,WeatherDisplay:10.37,2013-03-20 04:11:00,
2013-03-19 21:15:00,54.8,44.0,30.14,South,174,0.0,0.0,67,0.01,SCT,,0.06,WeatherDisplay:10.37,2013-03-20 04:15:00,
2013-03-19 21:16:00,54.8,44.0,30.13,South,174,0.0,0.0,67,0.01,SCT,,0.06,WeatherDisplay:10.37,2013-03-20 04:16:00,
2013-03-19 21:20:00,54.8,44.4,30.14,South,174,0.0,0.0,68,0.01,SCT,,0.06,WeatherDisplay:10.37,2013-03-20 04:20:00,
2013-03-19 21:21:00,54.7,44.3,30.14,South,174,0.0,0.0,68,0.01,SCT,,0.06,WeatherDisplay:10.37,2013-03-20 04:21:00,
2013-03-19 21:22:00,54.7,44.3,30.14,South,174,0.0,0.0,68,0.01,SCT,,0.06,WeatherDisplay:10.37,2013-03-20 04:22:00,
2013-03-19 21:26:00,54.7,44.0,30.13,South,174,0.0,0.0,67,0.01,SCT,,0.06,WeatherDisplay:10.37,2013-03-20 04:26:00,
2013-03-19 21:27:00,54.7,44.3,30.13,South,174,0.0,0.0,68,0.01,SCT,,0.06,WeatherDisplay:10.37,2013-03-20 04:27:00,
2013-03-19 21:28:00,54.7,44.3,30.13,South,174,0.0,0.0,68,0.01,SCT,,0.06,WeatherDisplay:10.37,2013-03-20 04:28:00,
2013-03-19 21:31:00,54.6,44.2,30.13,South,174,0.0,0.0,68,0.01,SCT,,0.06,WeatherDisplay:10.37,2013-03-20 04:31:00,
2013-03-19 21:32:00,54.7,44.3,30.13,South,174,0.0,0.0,68,0.01,SCT,,0.06,WeatherDisplay:10.37,2013-03-20 04:32:00,
2013-03-19 21:33:00,54.6,44.2,30.13,South,174,0.0,0.0,68,0.01,SCT,,0.06,WeatherDisplay:10.37,2013-03-20 04:33:00,
2013-03-19 21:37:00,54.1,43.8,30.11,South,174,0.0,0.0,68,0.01,SCT,,0.06,WeatherDisplay:10.37,2013-03-20 04:37:00,
2013-03-19 21:38:00,54.0,43.7,30.11,South,178,1.2,1.2,68,0.01,SCT,,0.06,WeatherDisplay:10.37,2013-03-20 04:38:00,
2013-03-19 21:39:00,53.9,43.6,30.11,South,178,0.0,0.0,68,0.01,SCT,,0.06,WeatherDisplay:10.37,2013-03-20 04:39:00,
2013-03-19 21:42:00,53.9,44.0,30.12,SE,133,1.2,1.2,69,0.01,SCT,,0.06,WeatherDisplay:10.37,2013-03-20 04:42:00,
2013-03-19 21:43:00,53.9,44.3,30.12,SE,127,1.2,1.2,70,0.01,SCT,,0.06,WeatherDisplay:10.37,2013-03-20 04:43:00,
2013-03-19 21:45:00,53.8,43.9,30.12,SE,127,1.2,1.2,69,0.00,SCT,,0.06,WeatherDisplay:10.37,2013-03-20 04:45:00,
2013-03-19 21:47:00,53.8,44.2,30.12,SE,127,0.0,0.0,70,0.00,SCT,,0.06,WeatherDisplay:10.37,2013-03-20 04:47:00,
2013-03-19 21:48:00,53.8,44.2,30.12,SE,127,0.0,0.0,70,0.00,SCT,,0.06,WeatherDisplay:10.37,2013-03-20 04:48:00,
2013-03-19 21:49:00,53.8,44.6,30.12,SE,127,0.0,0.0,71,0.00,SCT,,0.06,WeatherDisplay:10.37,2013-03-20 04:49:00,
2013-03-19 21:50:00,53.8,44.6,30.12,SE,127,0.0,0.0,71,0.00,SCT,,0.06,WeatherDisplay:10.37,2013-03-20 04:50:00,
2013-03-19 21:53:00,53.9,44.7,30.12,SE,127,0.0,0.0,71,0.00,SCT,,0.06,WeatherDisplay:10.37,2013-03-20 04:53:00,
2013-03-19 21:54:00,53.9,44.7,30.12,SE,127,0.0,0.0,71,0.00,SCT,,0.06,WeatherDisplay:10.37,2013-03-20 04:54:00,
2013-03-19 21:55:00,53.9,44.3,30.12,SE,127,0.0,0.0,70,0.00,SCT,,0.06,WeatherDisplay:10.37,2013-03-20 04:55:00,
2013-03-19 21:56:00,53.9,44.3,30.12,SE,127,0.0,0.0,70,0.00,SCT,,0.06,WeatherDisplay:10.37,2013-03-20 04:56:00,
2013-03-19 21:59:00,54.0,44.4,30.12,SE,127,0.0,0.0,70,0.00,SCT,,0.06,WeatherDisplay:10.37,2013-03-20 04:59:00,
2013-03-19 22:01:00,53.9,44.3,30.12,SE,127,0.0,0.0,70,0.00,SCT,,0.06,WeatherDisplay:10.37,2013-03-20 05:01:00,
2013-03-19 22:02:00,54.0,44.4,30.12,SE,127,0.0,0.0,70,0.00,SCT,,0.06,WeatherDisplay:10.37,2013-03-20 05:02:00,
2013-03-19 22:04:00,53.9,44.3,30.12,SE,127,0.0,0.0,70,0.00,SCT,,0.06,WeatherDisplay:10.37,2013-03-20 05:04:00,
2013-03-19 22:07:00,53.9,44.3,30.12,SE,127,0.0,0.0,70,0.00,SCT,,0.06,WeatherDisplay:10.37,2013-03-20 05:07:00,
2013-03-19 22:11:00,54.0,44.1,30.13,SE,127,0.0,0.0,69,0.00,SCT,,0.06,WeatherDisplay:10.37,2013-03-20 05:11:00,
2013-03-19 22:12:00,54.0,44.4,30.13,SE,127,0.0,0.0,70,0.00,SCT,,0.06,WeatherDisplay:10.37,2013-03-20 05:12:00,
2013-03-19 22:13:00,54.0,44.1,30.13,SE,127,0.0,0.0,69,0.00,SCT,,0.06,WeatherDisplay:10.37,2013-03-20 05:13:00,
2013-03-19 22:16:00,53.9,44.0,30.12,SE,127,1.0,1.0,69,0.00,SCT,,0.06,WeatherDisplay:10.37,2013-03-20 05:16:00,
2013-03-19 22:17:00,53.9,44.3,30.12,SE,127,1.2,1.2,70,0.00,SCT,,0.06,WeatherDisplay:10.37,2013-03-20 05:17:00,
2013-03-19 22:18:00,53.9,44.3,30.12,SE,127,1.2,1.2,70,0.00,SCT,,0.06,WeatherDisplay:10.37,2013-03-20 05:18:00,
2013-03-19 22:20:00,53.8,44.6,30.12,SE,127,1.2,1.2,71,0.00,SCT,,0.06,WeatherDisplay:10.37,2013-03-20 05:20:00,
2013-03-19 22:22:00,53.8,44.6,30.12,SE,127,0.0,0.0,71,0.00,SCT,,0.06,WeatherDisplay:10.37,2013-03-20 05:22:00,
2013-03-19 22:23:00,53.7,44.1,30.12,SE,127,0.0,0.0,70,0.00,SCT,,0.06,WeatherDisplay:10.37,2013-03-20 05:23:00,
2013-03-19 22:24:00,53.7,44.1,30.12,SE,127,0.0,0.0,70,0.00,SCT,,0.06,WeatherDisplay:10.37,2013-03-20 05:24:00,
2013-03-19 22:25:00,53.7,44.1,30.12,SE,127,0.0,0.0,70,0.00,SCT,,0.06,WeatherDisplay:10.37,2013-03-20 05:25:00,
2013-03-19 22:28:00,53.8,44.6,30.12,SE,127,0.0,0.0,71,0.00,SCT,,0.06,WeatherDisplay:10.37,2013-03-20 05:28:00,
2013-03-19 22:29:00,53.8,44.2,30.12,SE,127,0.0,0.0,70,0.00,SCT,,0.06,WeatherDisplay:10.37,2013-03-20 05:29:00,
2013-03-19 22:30:00,53.8,44.2,30.12,SE,127,0.0,0.0,70,0.00,SCT,,0.06,WeatherDisplay:10.37,2013-03-20 05:30:00,
2013-03-19 22:31:00,53.7,44.1,30.12,SE,127,0.0,0.0,70,0.00,SCT,,0.06,WeatherDisplay:10.37,2013-03-20 05:31:00,
2013-03-19 22:33:00,53.7,43.8,30.12,SE,127,0.0,0.0,69,0.00,SCT,,0.06,WeatherDisplay:10.37,2013-03-20 05:33:00,
2013-03-19 22:35:00,53.7,43.8,30.12,SE,127,0.0,0.0,69,0.00,SCT,,0.06,WeatherDisplay:10.37,2013-03-20 05:35:00,
2013-03-19 22:37:00,53.6,44.0,30.12,SE,127,0.0,0.0,70,0.00,SCT,,0.06,WeatherDisplay:10.37,2013-03-20 05:37:00,
2013-03-19 22:39:00,53.5,44.3,30.12,SE,127,0.0,0.0,71,0.00,SCT,,0.06,WeatherDisplay:10.37,2013-03-20 05:39:00,
2013-03-19 22:40:00,53.5,44.3,30.13,SE,127,0.0,0.0,71,0.00,SCT,,0.06,WeatherDisplay:10.37,2013-03-20 05:40:00,
2013-03-19 22:44:00,53.5,44.3,30.13,SE,127,0.0,0.0,71,0.00,SCT,,0.06,WeatherDisplay:10.37,2013-03-20 05:44:00,
2013-03-19 22:45:00,53.5,44.3,30.13,SE,127,0.0,0.0,71,0.00,SCT,,0.06,WeatherDisplay:10.37,2013-03-20 05:45:00,
2013-03-19 22:46:00,53.4,44.2,30.13,SE,127,0.0,0.0,71,0.00,SCT,,0.06,WeatherDisplay:10.37,2013-03-20 05:46:00,
2013-03-19 22:50:00,53.3,44.5,30.13,SE,127,0.0,1.0,72,0.00,SCT,,0.06,WeatherDisplay:10.37,2013-03-20 05:50:00,
2013-03-19 22:51:00,53.3,44.1,30.12,SE,127,0.0,0.0,71,0.00,SCT,,0.06,WeatherDisplay:10.37,2013-03-20 05:51:00,
2013-03-19 22:55:00,53.3,44.1,30.13,SE,127,0.0,1.0,71,0.00,SCT,,0.06,WeatherDisplay:10.37,2013-03-20 05:55:00,
2013-03-19 22:58:00,53.4,44.2,30.13,SE,127,0.0,0.0,71,0.00,SCT,,0.06,WeatherDisplay:10.37,2013-03-20 05:58:00,
2013-03-19 23:00:00,53.5,44.3,30.13,SE,127,0.0,0.0,71,0.00,SCT,,0.06,WeatherDisplay:10.37,2013-03-20 06:00:00,
2013-03-19 23:03:00,53.5,44.3,30.13,SE,127,0.0,0.0,71,0.00,SCT,,0.06,WeatherDisplay:10.37,2013-03-20 06:03:00,
2013-03-19 23:05:00,53.5,44.3,30.13,SE,127,0.0,0.0,71,0.00,SCT,,0.06,WeatherDisplay:10.37,2013-03-20 06:05:00,
2013-03-19 23:08:00,53.4,44.2,30.13,SE,127,0.0,0.0,71,0.00,SCT,,0.06,WeatherDisplay:10.37,2013-03-20 06:08:00,
2013-03-19 23:09:00,53.4,44.2,30.13,SE,127,0.0,0.0,71,0.00,SCT,,0.06,WeatherDisplay:10.37,2013-03-20 06:09:00,
2013-03-19 23:11:00,53.4,44.6,30.13,SE,127,0.0,0.0,72,0.00,SCT,,0.06,WeatherDisplay:10.37,2013-03-20 06:11:00,
2013-03-19 23:12:00,53.4,44.6,30.13,SE,127,0.0,0.0,72,0.00,SCT,,0.06,WeatherDisplay:10.37,2013-03-20 06:12:00,
2013-03-19 23:13:00,53.4,44.6,30.13,SE,127,0.0,0.0,72,0.00,SCT,,0.06,WeatherDisplay:10.37,2013-03-20 06:13:00,
2013-03-19 23:15:00,53.4,44.6,30.13,SE,127,0.0,0.0,72,0.00,SCT,,0.06,WeatherDisplay:10.37,2013-03-20 06:15:00,
2013-03-19 23:17:00,53.4,44.6,30.13,SE,127,0.0,0.0,72,0.00,SCT,,0.06,WeatherDisplay:10.37,2013-03-20 06:17:00,
2013-03-19 23:18:00,53.4,44.6,30.13,SE,127,0.0,0.0,72,0.00,SCT,,0.06,WeatherDisplay:10.37,2013-03-20 06:18:00,
2013-03-19 23:20:00,53.4,44.6,30.13,SE,127,0.0,0.0,72,0.00,SCT,,0.06,WeatherDisplay:10.37,2013-03-20 06:20:00,
2013-03-19 23:22:00,53.4,44.6,30.13,SE,127,0.0,0.0,72,0.00,SCT,,0.06,WeatherDisplay:10.37,2013-03-20 06:22:00,
2013-03-19 23:23:00,53.4,44.6,30.13,SE,127,0.0,0.0,72,0.00,SCT,,0.06,WeatherDisplay:10.37,2013-03-20 06:23:00,
2013-03-19 23:25:00,53.3,44.1,30.13,SE,127,0.0,0.0,71,0.00,SCT,,0.06,WeatherDisplay:10.37,2013-03-20 06:25:00,
2013-03-19 23:27:00,53.3,44.1,30.12,SE,127,0.0,0.0,71,0.00,SCT,,0.06,WeatherDisplay:10.37,2013-03-20 06:27:00,
2013-03-19 23:29:00,53.4,44.6,30.12,SE,127,0.0,0.0,72,0.00,SCT,,0.06,WeatherDisplay:10.37,2013-03-20 06:29:00,
2013-03-19 23:30:00,53.4,44.6,30.13,SE,127,0.0,0.0,72,0.00,SCT,,0.06,WeatherDisplay:10.37,2013-03-20 06:30:00,
2013-03-19 23:32:00,53.3,44.5,30.12,SE,127,0.0,0.0,72,0.00,SCT,,0.06,WeatherDisplay:10.37,2013-03-20 06:32:00,
2013-03-19 23:34:00,53.4,45.0,30.12,SE,127,0.0,0.0,73,0.00,SCT,,0.06,WeatherDisplay:10.37,2013-03-20 06:34:00,
2013-03-19 23:35:00,53.4,44.6,30.12,SE,127,0.0,0.0,72,0.00,SCT,,0.06,WeatherDisplay:10.37,2013-03-20 06:35:00,
2013-03-19 23:37:00,53.3,44.9,30.12,SE,127,0.0,0.0,73,0.00,SCT,,0.06,WeatherDisplay:10.37,2013-03-20 06:37:00,
2013-03-19 23:40:00,53.2,44.4,30.12,SE,127,0.0,0.0,72,0.00,SCT,,0.06,WeatherDisplay:10.37,2013-03-20 06:40:00,
2013-03-19 23:43:00,53.3,44.9,30.13,SE,127,0.0,0.0,73,0.00,SCT,,0.06,WeatherDisplay:10.37,2013-03-20 06:43:00,
2013-03-19 23:45:00,53.3,44.5,30.13,SE,127,0.0,0.0,72,0.00,SCT,,0.06,WeatherDisplay:10.37,2013-03-20 06:45:00,
2013-03-19 23:46:00,53.2,44.4,30.13,SE,127,0.0,0.0,72,0.00,SCT,,0.06,WeatherDisplay:10.37,2013-03-20 06:46:00,
2013-03-19 23:47:00,53.2,44.8,30.12,SE,127,0.0,0.0,73,0.00,SCT,,0.06,WeatherDisplay:10.37,2013-03-20 06:47:00,
2013-03-19 23:48:00,53.2,44.8,30.13,SE,127,0.0,0.0,73,0.00,SCT,,0.06,WeatherDisplay:10.37,2013-03-20 06:48:00,
2013-03-19 23:50:00,53.3,44.9,30.12,SE,127,0.0,0.0,73,0.00,SCT,,0.06,WeatherDisplay:10.37,2013-03-20 06:50:00,
2013-03-19 23:51:00,53.3,44.9,30.12,SE,127,0.0,0.0,73,0.00,SCT,,0.06,WeatherDisplay:10.37,2013-03-20 06:51:00,
2013-03-19 23:52:00,53.2,44.8,30.12,SE,127,0.0,0.0,73,0.00,SCT,,0.06,WeatherDisplay:10.37,2013-03-20 06:52:00,
2013-03-19 23:53:00,53.2,44.8,30.12,SE,127,0.0,0.0,73,0.00,SCT,,0.06,WeatherDisplay:10.37,2013-03-20 06:53:00,
2013-03-19 23:55:00,53.2,44.8,30.12,SE,127,0.0,0.0,73,0.00,SCT,,0.06,WeatherDisplay:10.37,2013-03-20 06:55:00,
2013-03-19 23:57:00,53.2,44.8,30.12,SE,127,0.0,0.0,73,0.00,SCT,,0.06,WeatherDisplay:10.37,2013-03-20 06:57:00,
2013-03-19 23:58:00,53.2,44.8,30.12,SE,127,0.0,0.0,73,0.00,SCT,,0.06,WeatherDisplay:10.37,2013-03-20 06:58:00,
2013-03-19 23:59:00,53.2,44.8,30.12,SE,127,0.0,0.0,73,0.00,SCT,,0.06,WeatherDisplay:10.37,2013-03-20 06:59:00,